<?xml version="1.0" encoding="UTF-8" standalone="no" ?>
<gpx xmlns="http://www.topografix.com/GPX/1/1" xmlns:xsi="http://www.w3.org/2001/XMLSchema-instance" xsi:schemaLocation="http://www.topografix.com/GPX/1/1 http://www.topografix.com/GPX/1/1/gpx.xsd" version="1.1" creator="VisuGPX - https://www.visugpx.com">
  <metadata>
    <name>Dondas - Sabré - 22 août 2017</name>
    <desc><![CDATA[Dondas - Sabré - 22 août 2017 --------------]]></desc>
  </metadata>
  <trk>
    <name><![CDATA[2017-08-22T07:09:59Z]]></name>
    <trkseg>
      <trkpt lat="44.22004" lon="0.84555">
        <ele>166.8</ele>
        <time>2017-08-22T07:10:00Z</time>
      </trkpt>
      <trkpt lat="44.22004" lon="0.84556">
        <ele>167.04</ele>
        <time>2017-08-22T07:10:02Z</time>
      </trkpt>
      <trkpt lat="44.22002" lon="0.84562">
        <ele>166.881</ele>
        <time>2017-08-22T07:10:07Z</time>
      </trkpt>
      <trkpt lat="44.21996" lon="0.8456">
        <ele>166.41</ele>
        <time>2017-08-22T07:10:10Z</time>
      </trkpt>
      <trkpt lat="44.2198" lon="0.84555">
        <ele>165.71</ele>
        <time>2017-08-22T07:10:16Z</time>
      </trkpt>
      <trkpt lat="44.21963" lon="0.84563">
        <ele>165.451</ele>
        <time>2017-08-22T07:10:21Z</time>
      </trkpt>
      <trkpt lat="44.21939" lon="0.84584">
        <ele>165.751</ele>
        <time>2017-08-22T07:10:29Z</time>
      </trkpt>
      <trkpt lat="44.21919" lon="0.84608">
        <ele>166.68</ele>
        <time>2017-08-22T07:10:38Z</time>
      </trkpt>
      <trkpt lat="44.21893" lon="0.84641">
        <ele>167.09</ele>
        <time>2017-08-22T07:10:50Z</time>
      </trkpt>
      <trkpt lat="44.21866" lon="0.84677">
        <ele>167.26</ele>
        <time>2017-08-22T07:11:03Z</time>
      </trkpt>
      <trkpt lat="44.21846" lon="0.84698">
        <ele>167.971</ele>
        <time>2017-08-22T07:11:12Z</time>
      </trkpt>
      <trkpt lat="44.21844" lon="0.84699">
        <ele>168.222</ele>
        <time>2017-08-22T07:11:13Z</time>
      </trkpt>
      <trkpt lat="44.21844" lon="0.84712">
        <ele>168.31</ele>
        <time>2017-08-22T07:11:17Z</time>
      </trkpt>
      <trkpt lat="44.21863" lon="0.8475">
        <ele>168.86</ele>
        <time>2017-08-22T07:11:28Z</time>
      </trkpt>
      <trkpt lat="44.21879" lon="0.84782">
        <ele>169.13</ele>
        <time>2017-08-22T07:11:38Z</time>
      </trkpt>
      <trkpt lat="44.21891" lon="0.84814">
        <ele>168.179</ele>
        <time>2017-08-22T07:11:46Z</time>
      </trkpt>
      <trkpt lat="44.21897" lon="0.8483">
        <ele>167.709</ele>
        <time>2017-08-22T07:11:49Z</time>
      </trkpt>
      <trkpt lat="44.21907" lon="0.8485">
        <ele>167.229</ele>
        <time>2017-08-22T07:11:53Z</time>
      </trkpt>
      <trkpt lat="44.21927" lon="0.84888">
        <ele>167.23</ele>
        <time>2017-08-22T07:12:01Z</time>
      </trkpt>
      <trkpt lat="44.21942" lon="0.84906">
        <ele>167.66</ele>
        <time>2017-08-22T07:12:07Z</time>
      </trkpt>
      <trkpt lat="44.21961" lon="0.84929">
        <ele>168.4</ele>
        <time>2017-08-22T07:12:15Z</time>
      </trkpt>
      <trkpt lat="44.21982" lon="0.84952">
        <ele>169.14</ele>
        <time>2017-08-22T07:12:23Z</time>
      </trkpt>
      <trkpt lat="44.21995" lon="0.84972">
        <ele>169.771</ele>
        <time>2017-08-22T07:12:30Z</time>
      </trkpt>
      <trkpt lat="44.22011" lon="0.84995">
        <ele>170.461</ele>
        <time>2017-08-22T07:12:40Z</time>
      </trkpt>
      <trkpt lat="44.22029" lon="0.85024">
        <ele>170.871</ele>
        <time>2017-08-22T07:12:49Z</time>
      </trkpt>
      <trkpt lat="44.22054" lon="0.85056">
        <ele>170.951</ele>
        <time>2017-08-22T07:12:58Z</time>
      </trkpt>
      <trkpt lat="44.22078" lon="0.85079">
        <ele>170.981</ele>
        <time>2017-08-22T07:13:05Z</time>
      </trkpt>
      <trkpt lat="44.2212" lon="0.85114">
        <ele>171.291</ele>
        <time>2017-08-22T07:13:16Z</time>
      </trkpt>
      <trkpt lat="44.22154" lon="0.8515">
        <ele>171.701</ele>
        <time>2017-08-22T07:13:26Z</time>
      </trkpt>
      <trkpt lat="44.22176" lon="0.85184">
        <ele>172.462</ele>
        <time>2017-08-22T07:13:34Z</time>
      </trkpt>
      <trkpt lat="44.2219" lon="0.8521">
        <ele>173.443</ele>
        <time>2017-08-22T07:13:41Z</time>
      </trkpt>
      <trkpt lat="44.22208" lon="0.85242">
        <ele>175.423</ele>
        <time>2017-08-22T07:13:52Z</time>
      </trkpt>
      <trkpt lat="44.22222" lon="0.85268">
        <ele>177.143</ele>
        <time>2017-08-22T07:14:03Z</time>
      </trkpt>
      <trkpt lat="44.22233" lon="0.85291">
        <ele>178.713</ele>
        <time>2017-08-22T07:14:13Z</time>
      </trkpt>
      <trkpt lat="44.22243" lon="0.85312">
        <ele>180.073</ele>
        <time>2017-08-22T07:14:22Z</time>
      </trkpt>
      <trkpt lat="44.2225" lon="0.8533">
        <ele>181.214</ele>
        <time>2017-08-22T07:14:30Z</time>
      </trkpt>
      <trkpt lat="44.22259" lon="0.85353">
        <ele>182.633</ele>
        <time>2017-08-22T07:14:40Z</time>
      </trkpt>
      <trkpt lat="44.22268" lon="0.85377">
        <ele>184.043</ele>
        <time>2017-08-22T07:14:51Z</time>
      </trkpt>
      <trkpt lat="44.22273" lon="0.85397">
        <ele>184.433</ele>
        <time>2017-08-22T07:15:00Z</time>
      </trkpt>
      <trkpt lat="44.22279" lon="0.8542">
        <ele>183.952</ele>
        <time>2017-08-22T07:15:11Z</time>
      </trkpt>
      <trkpt lat="44.22284" lon="0.85446">
        <ele>182.702</ele>
        <time>2017-08-22T07:15:18Z</time>
      </trkpt>
      <trkpt lat="44.22292" lon="0.85489">
        <ele>180.932</ele>
        <time>2017-08-22T07:15:26Z</time>
      </trkpt>
      <trkpt lat="44.22302" lon="0.85542">
        <ele>180.303</ele>
        <time>2017-08-22T07:15:35Z</time>
      </trkpt>
      <trkpt lat="44.22309" lon="0.85583">
        <ele>181.274</ele>
        <time>2017-08-22T07:15:44Z</time>
      </trkpt>
      <trkpt lat="44.22314" lon="0.85625">
        <ele>182.374</ele>
        <time>2017-08-22T07:15:54Z</time>
      </trkpt>
      <trkpt lat="44.22318" lon="0.85658">
        <ele>183.634</ele>
        <time>2017-08-22T07:16:04Z</time>
      </trkpt>
      <trkpt lat="44.22322" lon="0.85689">
        <ele>184.334</ele>
        <time>2017-08-22T07:16:14Z</time>
      </trkpt>
      <trkpt lat="44.22329" lon="0.85724">
        <ele>185.043</ele>
        <time>2017-08-22T07:16:25Z</time>
      </trkpt>
      <trkpt lat="44.22336" lon="0.85752">
        <ele>185.514</ele>
        <time>2017-08-22T07:16:34Z</time>
      </trkpt>
      <trkpt lat="44.22342" lon="0.85781">
        <ele>186.004</ele>
        <time>2017-08-22T07:16:43Z</time>
      </trkpt>
      <trkpt lat="44.22352" lon="0.85821">
        <ele>186.574</ele>
        <time>2017-08-22T07:16:55Z</time>
      </trkpt>
      <trkpt lat="44.22359" lon="0.85849">
        <ele>186.794</ele>
        <time>2017-08-22T07:17:04Z</time>
      </trkpt>
      <trkpt lat="44.2237" lon="0.85892">
        <ele>187.074</ele>
        <time>2017-08-22T07:17:16Z</time>
      </trkpt>
      <trkpt lat="44.22377" lon="0.85917">
        <ele>187.074</ele>
        <time>2017-08-22T07:17:23Z</time>
      </trkpt>
      <trkpt lat="44.22385" lon="0.8595">
        <ele>187.185</ele>
        <time>2017-08-22T07:17:32Z</time>
      </trkpt>
      <trkpt lat="44.22399" lon="0.85993">
        <ele>186.353</ele>
        <time>2017-08-22T07:17:42Z</time>
      </trkpt>
      <trkpt lat="44.2241" lon="0.86034">
        <ele>184.402</ele>
        <time>2017-08-22T07:17:48Z</time>
      </trkpt>
      <trkpt lat="44.22426" lon="0.86095">
        <ele>181.452</ele>
        <time>2017-08-22T07:17:55Z</time>
      </trkpt>
      <trkpt lat="44.22441" lon="0.86172">
        <ele>179.885</ele>
        <time>2017-08-22T07:18:03Z</time>
      </trkpt>
      <trkpt lat="44.22447" lon="0.86216">
        <ele>180.335</ele>
        <time>2017-08-22T07:18:09Z</time>
      </trkpt>
      <trkpt lat="44.22453" lon="0.86271">
        <ele>181.295</ele>
        <time>2017-08-22T07:18:18Z</time>
      </trkpt>
      <trkpt lat="44.22461" lon="0.86337">
        <ele>181.024</ele>
        <time>2017-08-22T07:18:29Z</time>
      </trkpt>
      <trkpt lat="44.22463" lon="0.8635">
        <ele>180.784</ele>
        <time>2017-08-22T07:18:31Z</time>
      </trkpt>
      <trkpt lat="44.2246" lon="0.86382">
        <ele>180.636</ele>
        <time>2017-08-22T07:18:36Z</time>
      </trkpt>
      <trkpt lat="44.22447" lon="0.86425">
        <ele>180.255</ele>
        <time>2017-08-22T07:18:45Z</time>
      </trkpt>
      <trkpt lat="44.22441" lon="0.86445">
        <ele>179.936</ele>
        <time>2017-08-22T07:18:51Z</time>
      </trkpt>
      <trkpt lat="44.22438" lon="0.86466">
        <ele>180.066</ele>
        <time>2017-08-22T07:18:59Z</time>
      </trkpt>
      <trkpt lat="44.22445" lon="0.86481">
        <ele>180.506</ele>
        <time>2017-08-22T07:19:05Z</time>
      </trkpt>
      <trkpt lat="44.22455" lon="0.86499">
        <ele>181.936</ele>
        <time>2017-08-22T07:19:13Z</time>
      </trkpt>
      <trkpt lat="44.22467" lon="0.86521">
        <ele>183.246</ele>
        <time>2017-08-22T07:19:22Z</time>
      </trkpt>
      <trkpt lat="44.22483" lon="0.86549">
        <ele>184.546</ele>
        <time>2017-08-22T07:19:35Z</time>
      </trkpt>
      <trkpt lat="44.22499" lon="0.86571">
        <ele>185.446</ele>
        <time>2017-08-22T07:19:47Z</time>
      </trkpt>
      <trkpt lat="44.22515" lon="0.8659">
        <ele>185.916</ele>
        <time>2017-08-22T07:19:58Z</time>
      </trkpt>
      <trkpt lat="44.22538" lon="0.86615">
        <ele>186.126</ele>
        <time>2017-08-22T07:20:12Z</time>
      </trkpt>
      <trkpt lat="44.22555" lon="0.8663">
        <ele>186.046</ele>
        <time>2017-08-22T07:20:20Z</time>
      </trkpt>
      <trkpt lat="44.2258" lon="0.86646">
        <ele>185.946</ele>
        <time>2017-08-22T07:20:29Z</time>
      </trkpt>
      <trkpt lat="44.22608" lon="0.8666">
        <ele>186.137</ele>
        <time>2017-08-22T07:20:39Z</time>
      </trkpt>
      <trkpt lat="44.22632" lon="0.86673">
        <ele>186.577</ele>
        <time>2017-08-22T07:20:48Z</time>
      </trkpt>
      <trkpt lat="44.22652" lon="0.86686">
        <ele>187.388</ele>
        <time>2017-08-22T07:20:57Z</time>
      </trkpt>
      <trkpt lat="44.22666" lon="0.86695">
        <ele>188.137</ele>
        <time>2017-08-22T07:21:06Z</time>
      </trkpt>
      <trkpt lat="44.22685" lon="0.86706">
        <ele>188.877</ele>
        <time>2017-08-22T07:21:18Z</time>
      </trkpt>
      <trkpt lat="44.22698" lon="0.86716">
        <ele>189.517</ele>
        <time>2017-08-22T07:21:28Z</time>
      </trkpt>
      <trkpt lat="44.2271" lon="0.86724">
        <ele>190.188</ele>
        <time>2017-08-22T07:21:37Z</time>
      </trkpt>
      <trkpt lat="44.22721" lon="0.86732">
        <ele>190.748</ele>
        <time>2017-08-22T07:21:45Z</time>
      </trkpt>
      <trkpt lat="44.22732" lon="0.86741">
        <ele>191.438</ele>
        <time>2017-08-22T07:21:53Z</time>
      </trkpt>
      <trkpt lat="44.22734" lon="0.86744">
        <ele>191.768</ele>
        <time>2017-08-22T07:21:55Z</time>
      </trkpt>
      <trkpt lat="44.22745" lon="0.86758">
        <ele>193.878</ele>
        <time>2017-08-22T07:22:05Z</time>
      </trkpt>
      <trkpt lat="44.22755" lon="0.86772">
        <ele>194.338</ele>
        <time>2017-08-22T07:22:14Z</time>
      </trkpt>
      <trkpt lat="44.22764" lon="0.86789">
        <ele>194.858</ele>
        <time>2017-08-22T07:22:24Z</time>
      </trkpt>
      <trkpt lat="44.22772" lon="0.86809">
        <ele>195.348</ele>
        <time>2017-08-22T07:22:32Z</time>
      </trkpt>
      <trkpt lat="44.22782" lon="0.86835">
        <ele>195.818</ele>
        <time>2017-08-22T07:22:42Z</time>
      </trkpt>
      <trkpt lat="44.22791" lon="0.86868">
        <ele>196.718</ele>
        <time>2017-08-22T07:22:54Z</time>
      </trkpt>
      <trkpt lat="44.22796" lon="0.86893">
        <ele>197.468</ele>
        <time>2017-08-22T07:23:03Z</time>
      </trkpt>
      <trkpt lat="44.22802" lon="0.8692">
        <ele>198.548</ele>
        <time>2017-08-22T07:23:14Z</time>
      </trkpt>
      <trkpt lat="44.22806" lon="0.86942">
        <ele>197.207</ele>
        <time>2017-08-22T07:23:23Z</time>
      </trkpt>
      <trkpt lat="44.22811" lon="0.86963">
        <ele>195.573</ele>
        <time>2017-08-22T07:23:32Z</time>
      </trkpt>
      <trkpt lat="44.22813" lon="0.86982">
        <ele>195.108</ele>
        <time>2017-08-22T07:23:39Z</time>
      </trkpt>
      <trkpt lat="44.22814" lon="0.86996">
        <ele>195.638</ele>
        <time>2017-08-22T07:23:45Z</time>
      </trkpt>
      <trkpt lat="44.22815" lon="0.87017">
        <ele>195.748</ele>
        <time>2017-08-22T07:23:53Z</time>
      </trkpt>
      <trkpt lat="44.22816" lon="0.87049">
        <ele>195.309</ele>
        <time>2017-08-22T07:24:05Z</time>
      </trkpt>
      <trkpt lat="44.22817" lon="0.87078">
        <ele>196.599</ele>
        <time>2017-08-22T07:24:16Z</time>
      </trkpt>
      <trkpt lat="44.22817" lon="0.87102">
        <ele>198.359</ele>
        <time>2017-08-22T07:24:25Z</time>
      </trkpt>
      <trkpt lat="44.22819" lon="0.87124">
        <ele>199.949</ele>
        <time>2017-08-22T07:24:34Z</time>
      </trkpt>
      <trkpt lat="44.22822" lon="0.87154">
        <ele>200.779</ele>
        <time>2017-08-22T07:24:45Z</time>
      </trkpt>
      <trkpt lat="44.22827" lon="0.87182">
        <ele>201.239</ele>
        <time>2017-08-22T07:24:55Z</time>
      </trkpt>
      <trkpt lat="44.2283" lon="0.87204">
        <ele>201.359</ele>
        <time>2017-08-22T07:25:03Z</time>
      </trkpt>
      <trkpt lat="44.22834" lon="0.87231">
        <ele>201.159</ele>
        <time>2017-08-22T07:25:12Z</time>
      </trkpt>
      <trkpt lat="44.22838" lon="0.87251">
        <ele>201.089</ele>
        <time>2017-08-22T07:25:19Z</time>
      </trkpt>
      <trkpt lat="44.22842" lon="0.87278">
        <ele>200.999</ele>
        <time>2017-08-22T07:25:27Z</time>
      </trkpt>
      <trkpt lat="44.22847" lon="0.87312">
        <ele>201.099</ele>
        <time>2017-08-22T07:25:37Z</time>
      </trkpt>
      <trkpt lat="44.22852" lon="0.87349">
        <ele>201.189</ele>
        <time>2017-08-22T07:25:47Z</time>
      </trkpt>
      <trkpt lat="44.22859" lon="0.8739">
        <ele>201.599</ele>
        <time>2017-08-22T07:25:58Z</time>
      </trkpt>
      <trkpt lat="44.22864" lon="0.87425">
        <ele>201.779</ele>
        <time>2017-08-22T07:26:08Z</time>
      </trkpt>
      <trkpt lat="44.22871" lon="0.87462">
        <ele>201.981</ele>
        <time>2017-08-22T07:26:19Z</time>
      </trkpt>
      <trkpt lat="44.22877" lon="0.875">
        <ele>202.289</ele>
        <time>2017-08-22T07:26:30Z</time>
      </trkpt>
      <trkpt lat="44.22883" lon="0.87533">
        <ele>202.94</ele>
        <time>2017-08-22T07:26:40Z</time>
      </trkpt>
      <trkpt lat="44.22887" lon="0.87557">
        <ele>203.069</ele>
        <time>2017-08-22T07:26:48Z</time>
      </trkpt>
      <trkpt lat="44.2289" lon="0.87576">
        <ele>203.14</ele>
        <time>2017-08-22T07:26:54Z</time>
      </trkpt>
      <trkpt lat="44.22892" lon="0.87596">
        <ele>204</ele>
        <time>2017-08-22T07:27:00Z</time>
      </trkpt>
      <trkpt lat="44.22893" lon="0.87628">
        <ele>204.349</ele>
        <time>2017-08-22T07:27:09Z</time>
      </trkpt>
      <trkpt lat="44.22891" lon="0.87654">
        <ele>203.739</ele>
        <time>2017-08-22T07:27:17Z</time>
      </trkpt>
      <trkpt lat="44.2289" lon="0.87683">
        <ele>204.64</ele>
        <time>2017-08-22T07:27:26Z</time>
      </trkpt>
      <trkpt lat="44.22891" lon="0.87708">
        <ele>206.82</ele>
        <time>2017-08-22T07:27:34Z</time>
      </trkpt>
      <trkpt lat="44.22893" lon="0.87731">
        <ele>208.271</ele>
        <time>2017-08-22T07:27:41Z</time>
      </trkpt>
      <trkpt lat="44.22897" lon="0.87761">
        <ele>209.57</ele>
        <time>2017-08-22T07:27:50Z</time>
      </trkpt>
      <trkpt lat="44.22901" lon="0.87795">
        <ele>209.8</ele>
        <time>2017-08-22T07:28:00Z</time>
      </trkpt>
      <trkpt lat="44.229" lon="0.87817">
        <ele>209.611</ele>
        <time>2017-08-22T07:28:07Z</time>
      </trkpt>
      <trkpt lat="44.229" lon="0.87842">
        <ele>209.18</ele>
        <time>2017-08-22T07:28:14Z</time>
      </trkpt>
      <trkpt lat="44.22899" lon="0.87878">
        <ele>207.91</ele>
        <time>2017-08-22T07:28:23Z</time>
      </trkpt>
      <trkpt lat="44.22897" lon="0.87916">
        <ele>206.8</ele>
        <time>2017-08-22T07:28:33Z</time>
      </trkpt>
      <trkpt lat="44.22896" lon="0.87962">
        <ele>205.55</ele>
        <time>2017-08-22T07:28:45Z</time>
      </trkpt>
      <trkpt lat="44.22894" lon="0.88003">
        <ele>205.03</ele>
        <time>2017-08-22T07:28:54Z</time>
      </trkpt>
      <trkpt lat="44.22892" lon="0.88048">
        <ele>204.61</ele>
        <time>2017-08-22T07:29:04Z</time>
      </trkpt>
      <trkpt lat="44.2289" lon="0.88097">
        <ele>204.671</ele>
        <time>2017-08-22T07:29:15Z</time>
      </trkpt>
      <trkpt lat="44.22887" lon="0.88137">
        <ele>204.961</ele>
        <time>2017-08-22T07:29:25Z</time>
      </trkpt>
      <trkpt lat="44.22885" lon="0.88171">
        <ele>205.821</ele>
        <time>2017-08-22T07:29:34Z</time>
      </trkpt>
      <trkpt lat="44.22881" lon="0.88209">
        <ele>206.351</ele>
        <time>2017-08-22T07:29:44Z</time>
      </trkpt>
      <trkpt lat="44.22877" lon="0.88243">
        <ele>206.651</ele>
        <time>2017-08-22T07:29:54Z</time>
      </trkpt>
      <trkpt lat="44.22874" lon="0.8828">
        <ele>207.681</ele>
        <time>2017-08-22T07:30:05Z</time>
      </trkpt>
      <trkpt lat="44.22878" lon="0.88296">
        <ele>209.642</ele>
        <time>2017-08-22T07:30:10Z</time>
      </trkpt>
      <trkpt lat="44.22889" lon="0.88294">
        <ele>211.562</ele>
        <time>2017-08-22T07:30:16Z</time>
      </trkpt>
      <trkpt lat="44.229" lon="0.88289">
        <ele>213.512</ele>
        <time>2017-08-22T07:30:24Z</time>
      </trkpt>
      <trkpt lat="44.22901" lon="0.88288">
        <ele>214.401</ele>
        <time>2017-08-22T07:30:29Z</time>
      </trkpt>
      <trkpt lat="44.22904" lon="0.8828">
        <ele>220.982</ele>
        <time>2017-08-22T07:32:12Z</time>
      </trkpt>
      <trkpt lat="44.22905" lon="0.88279">
        <ele>220.941</ele>
        <time>2017-08-22T07:32:13Z</time>
      </trkpt>
      <trkpt lat="44.22924" lon="0.88272">
        <ele>219.681</ele>
        <time>2017-08-22T07:32:19Z</time>
      </trkpt>
      <trkpt lat="44.22952" lon="0.88259">
        <ele>218.17</ele>
        <time>2017-08-22T07:32:25Z</time>
      </trkpt>
      <trkpt lat="44.22984" lon="0.88253">
        <ele>216.81</ele>
        <time>2017-08-22T07:32:30Z</time>
      </trkpt>
      <trkpt lat="44.23039" lon="0.88253">
        <ele>211.38</ele>
        <time>2017-08-22T07:32:37Z</time>
      </trkpt>
      <trkpt lat="44.23112" lon="0.88253">
        <ele>208.502</ele>
        <time>2017-08-22T07:32:47Z</time>
      </trkpt>
      <trkpt lat="44.23159" lon="0.8825">
        <ele>208.132</ele>
        <time>2017-08-22T07:32:55Z</time>
      </trkpt>
      <trkpt lat="44.23208" lon="0.8824">
        <ele>208.362</ele>
        <time>2017-08-22T07:33:04Z</time>
      </trkpt>
      <trkpt lat="44.23247" lon="0.88232">
        <ele>208.183</ele>
        <time>2017-08-22T07:33:12Z</time>
      </trkpt>
      <trkpt lat="44.23283" lon="0.88236">
        <ele>208.132</ele>
        <time>2017-08-22T07:33:19Z</time>
      </trkpt>
      <trkpt lat="44.23308" lon="0.88256">
        <ele>208.002</ele>
        <time>2017-08-22T07:33:25Z</time>
      </trkpt>
      <trkpt lat="44.23329" lon="0.8829">
        <ele>208.942</ele>
        <time>2017-08-22T07:33:32Z</time>
      </trkpt>
      <trkpt lat="44.23352" lon="0.88338">
        <ele>209.633</ele>
        <time>2017-08-22T07:33:41Z</time>
      </trkpt>
      <trkpt lat="44.23371" lon="0.88381">
        <ele>210.605</ele>
        <time>2017-08-22T07:33:50Z</time>
      </trkpt>
      <trkpt lat="44.23391" lon="0.88425">
        <ele>211.924</ele>
        <time>2017-08-22T07:34:01Z</time>
      </trkpt>
      <trkpt lat="44.23407" lon="0.88455">
        <ele>212.373</ele>
        <time>2017-08-22T07:34:09Z</time>
      </trkpt>
      <trkpt lat="44.23424" lon="0.88491">
        <ele>211.504</ele>
        <time>2017-08-22T07:34:18Z</time>
      </trkpt>
      <trkpt lat="44.23442" lon="0.88547">
        <ele>211.384</ele>
        <time>2017-08-22T07:34:30Z</time>
      </trkpt>
      <trkpt lat="44.23456" lon="0.88588">
        <ele>211.974</ele>
        <time>2017-08-22T07:34:40Z</time>
      </trkpt>
      <trkpt lat="44.23477" lon="0.88626">
        <ele>212.565</ele>
        <time>2017-08-22T07:34:52Z</time>
      </trkpt>
      <trkpt lat="44.23496" lon="0.88656">
        <ele>212.154</ele>
        <time>2017-08-22T07:35:03Z</time>
      </trkpt>
      <trkpt lat="44.23511" lon="0.88684">
        <ele>210.923</ele>
        <time>2017-08-22T07:35:11Z</time>
      </trkpt>
      <trkpt lat="44.23528" lon="0.88715">
        <ele>209.343</ele>
        <time>2017-08-22T07:35:17Z</time>
      </trkpt>
      <trkpt lat="44.23551" lon="0.88756">
        <ele>206.841</ele>
        <time>2017-08-22T07:35:23Z</time>
      </trkpt>
      <trkpt lat="44.23578" lon="0.88797">
        <ele>203.69</ele>
        <time>2017-08-22T07:35:28Z</time>
      </trkpt>
      <trkpt lat="44.23618" lon="0.88852">
        <ele>199.792</ele>
        <time>2017-08-22T07:35:34Z</time>
      </trkpt>
      <trkpt lat="44.23655" lon="0.88904">
        <ele>200.196</ele>
        <time>2017-08-22T07:35:40Z</time>
      </trkpt>
      <trkpt lat="44.23678" lon="0.88938">
        <ele>202.279</ele>
        <time>2017-08-22T07:35:45Z</time>
      </trkpt>
      <trkpt lat="44.23693" lon="0.88962">
        <ele>203.848</ele>
        <time>2017-08-22T07:35:50Z</time>
      </trkpt>
      <trkpt lat="44.23714" lon="0.8899">
        <ele>204.196</ele>
        <time>2017-08-22T07:35:58Z</time>
      </trkpt>
      <trkpt lat="44.23734" lon="0.8902">
        <ele>202.724</ele>
        <time>2017-08-22T07:36:04Z</time>
      </trkpt>
      <trkpt lat="44.23773" lon="0.8907">
        <ele>202.046</ele>
        <time>2017-08-22T07:36:13Z</time>
      </trkpt>
      <trkpt lat="44.23793" lon="0.89094">
        <ele>202.537</ele>
        <time>2017-08-22T07:36:19Z</time>
      </trkpt>
      <trkpt lat="44.23813" lon="0.89117">
        <ele>203.307</ele>
        <time>2017-08-22T07:36:27Z</time>
      </trkpt>
      <trkpt lat="44.23832" lon="0.8914">
        <ele>204.087</ele>
        <time>2017-08-22T07:36:36Z</time>
      </trkpt>
      <trkpt lat="44.23847" lon="0.89158">
        <ele>205.197</ele>
        <time>2017-08-22T07:36:45Z</time>
      </trkpt>
      <trkpt lat="44.23861" lon="0.89174">
        <ele>206.118</ele>
        <time>2017-08-22T07:36:55Z</time>
      </trkpt>
      <trkpt lat="44.2387" lon="0.89186">
        <ele>206.888</ele>
        <time>2017-08-22T07:37:04Z</time>
      </trkpt>
      <trkpt lat="44.23879" lon="0.89195">
        <ele>207.588</ele>
        <time>2017-08-22T07:37:12Z</time>
      </trkpt>
      <trkpt lat="44.23888" lon="0.89206">
        <ele>208.168</ele>
        <time>2017-08-22T07:37:21Z</time>
      </trkpt>
      <trkpt lat="44.23897" lon="0.89215">
        <ele>209.188</ele>
        <time>2017-08-22T07:37:30Z</time>
      </trkpt>
      <trkpt lat="44.23904" lon="0.89221">
        <ele>210.068</ele>
        <time>2017-08-22T07:37:37Z</time>
      </trkpt>
      <trkpt lat="44.23915" lon="0.89233">
        <ele>211.519</ele>
        <time>2017-08-22T07:37:48Z</time>
      </trkpt>
      <trkpt lat="44.23924" lon="0.89242">
        <ele>213.089</ele>
        <time>2017-08-22T07:37:57Z</time>
      </trkpt>
      <trkpt lat="44.23932" lon="0.89249">
        <ele>214.348</ele>
        <time>2017-08-22T07:38:05Z</time>
      </trkpt>
      <trkpt lat="44.23942" lon="0.89259">
        <ele>215.368</ele>
        <time>2017-08-22T07:38:15Z</time>
      </trkpt>
      <trkpt lat="44.23951" lon="0.89267">
        <ele>216.299</ele>
        <time>2017-08-22T07:38:24Z</time>
      </trkpt>
      <trkpt lat="44.23961" lon="0.89276">
        <ele>217.328</ele>
        <time>2017-08-22T07:38:34Z</time>
      </trkpt>
      <trkpt lat="44.23967" lon="0.89282">
        <ele>217.678</ele>
        <time>2017-08-22T07:38:40Z</time>
      </trkpt>
      <trkpt lat="44.23976" lon="0.89292">
        <ele>218.389</ele>
        <time>2017-08-22T07:38:48Z</time>
      </trkpt>
      <trkpt lat="44.23987" lon="0.89307">
        <ele>218.798</ele>
        <time>2017-08-22T07:38:58Z</time>
      </trkpt>
      <trkpt lat="44.23997" lon="0.89323">
        <ele>218.568</ele>
        <time>2017-08-22T07:39:04Z</time>
      </trkpt>
      <trkpt lat="44.24016" lon="0.89356">
        <ele>218.128</ele>
        <time>2017-08-22T07:39:12Z</time>
      </trkpt>
      <trkpt lat="44.24038" lon="0.89382">
        <ele>217.287</ele>
        <time>2017-08-22T07:39:19Z</time>
      </trkpt>
      <trkpt lat="44.24073" lon="0.89407">
        <ele>215.917</ele>
        <time>2017-08-22T07:39:27Z</time>
      </trkpt>
      <trkpt lat="44.24109" lon="0.89422">
        <ele>215.098</ele>
        <time>2017-08-22T07:39:35Z</time>
      </trkpt>
      <trkpt lat="44.24148" lon="0.89425">
        <ele>215.288</ele>
        <time>2017-08-22T07:39:44Z</time>
      </trkpt>
      <trkpt lat="44.24184" lon="0.89433">
        <ele>215.81</ele>
        <time>2017-08-22T07:39:53Z</time>
      </trkpt>
      <trkpt lat="44.24214" lon="0.89449">
        <ele>216.78</ele>
        <time>2017-08-22T07:40:02Z</time>
      </trkpt>
      <trkpt lat="44.24234" lon="0.89471">
        <ele>217.96</ele>
        <time>2017-08-22T07:40:11Z</time>
      </trkpt>
      <trkpt lat="44.24243" lon="0.89487">
        <ele>218.86</ele>
        <time>2017-08-22T07:40:18Z</time>
      </trkpt>
      <trkpt lat="44.24252" lon="0.89513">
        <ele>219.41</ele>
        <time>2017-08-22T07:40:28Z</time>
      </trkpt>
      <trkpt lat="44.24256" lon="0.89537">
        <ele>219.74</ele>
        <time>2017-08-22T07:40:37Z</time>
      </trkpt>
      <trkpt lat="44.2426" lon="0.8956">
        <ele>220.67</ele>
        <time>2017-08-22T07:40:46Z</time>
      </trkpt>
      <trkpt lat="44.24263" lon="0.8958">
        <ele>223.132</ele>
        <time>2017-08-22T07:40:55Z</time>
      </trkpt>
      <trkpt lat="44.24267" lon="0.896">
        <ele>223.641</ele>
        <time>2017-08-22T07:41:04Z</time>
      </trkpt>
      <trkpt lat="44.24274" lon="0.8962">
        <ele>224.121</ele>
        <time>2017-08-22T07:41:14Z</time>
      </trkpt>
      <trkpt lat="44.24278" lon="0.89637">
        <ele>224.441</ele>
        <time>2017-08-22T07:41:22Z</time>
      </trkpt>
      <trkpt lat="44.24282" lon="0.89657">
        <ele>224.23</ele>
        <time>2017-08-22T07:41:31Z</time>
      </trkpt>
      <trkpt lat="44.24286" lon="0.89683">
        <ele>224.23</ele>
        <time>2017-08-22T07:41:42Z</time>
      </trkpt>
      <trkpt lat="44.24285" lon="0.89707">
        <ele>223.79</ele>
        <time>2017-08-22T07:41:52Z</time>
      </trkpt>
      <trkpt lat="44.24283" lon="0.89726">
        <ele>222.61</ele>
        <time>2017-08-22T07:41:59Z</time>
      </trkpt>
      <trkpt lat="44.24281" lon="0.89741">
        <ele>222.14</ele>
        <time>2017-08-22T07:42:06Z</time>
      </trkpt>
      <trkpt lat="44.24281" lon="0.89743">
        <ele>223.391</ele>
        <time>2017-08-22T07:42:11Z</time>
      </trkpt>
      <trkpt lat="44.2428" lon="0.89753">
        <ele>223.321</ele>
        <time>2017-08-22T07:42:19Z</time>
      </trkpt>
      <trkpt lat="44.24276" lon="0.8978">
        <ele>221.859</ele>
        <time>2017-08-22T07:42:28Z</time>
      </trkpt>
      <trkpt lat="44.24273" lon="0.89814">
        <ele>221</ele>
        <time>2017-08-22T07:42:38Z</time>
      </trkpt>
      <trkpt lat="44.24273" lon="0.89851">
        <ele>221.86</ele>
        <time>2017-08-22T07:42:47Z</time>
      </trkpt>
      <trkpt lat="44.24278" lon="0.89894">
        <ele>222.28</ele>
        <time>2017-08-22T07:42:55Z</time>
      </trkpt>
      <trkpt lat="44.24287" lon="0.89945">
        <ele>222.09</ele>
        <time>2017-08-22T07:43:03Z</time>
      </trkpt>
      <trkpt lat="44.24304" lon="0.90016">
        <ele>222.551</ele>
        <time>2017-08-22T07:43:14Z</time>
      </trkpt>
      <trkpt lat="44.24321" lon="0.90067">
        <ele>222.27</ele>
        <time>2017-08-22T07:43:22Z</time>
      </trkpt>
      <trkpt lat="44.24344" lon="0.90139">
        <ele>221.74</ele>
        <time>2017-08-22T07:43:33Z</time>
      </trkpt>
      <trkpt lat="44.24363" lon="0.90213">
        <ele>220.511</ele>
        <time>2017-08-22T07:43:44Z</time>
      </trkpt>
      <trkpt lat="44.24374" lon="0.90264">
        <ele>220.863</ele>
        <time>2017-08-22T07:43:53Z</time>
      </trkpt>
      <trkpt lat="44.2438" lon="0.90314">
        <ele>222.843</ele>
        <time>2017-08-22T07:44:03Z</time>
      </trkpt>
      <trkpt lat="44.24382" lon="0.90347">
        <ele>223.092</ele>
        <time>2017-08-22T07:44:11Z</time>
      </trkpt>
      <trkpt lat="44.24384" lon="0.90383">
        <ele>222.372</ele>
        <time>2017-08-22T07:44:20Z</time>
      </trkpt>
      <trkpt lat="44.24387" lon="0.90415">
        <ele>221.931</ele>
        <time>2017-08-22T07:44:28Z</time>
      </trkpt>
      <trkpt lat="44.24393" lon="0.9046">
        <ele>220.701</ele>
        <time>2017-08-22T07:44:37Z</time>
      </trkpt>
      <trkpt lat="44.24403" lon="0.90501">
        <ele>219.54</ele>
        <time>2017-08-22T07:44:43Z</time>
      </trkpt>
      <trkpt lat="44.24419" lon="0.90568">
        <ele>217.2</ele>
        <time>2017-08-22T07:44:51Z</time>
      </trkpt>
      <trkpt lat="44.24433" lon="0.90641">
        <ele>215.411</ele>
        <time>2017-08-22T07:44:59Z</time>
      </trkpt>
      <trkpt lat="44.24437" lon="0.90658">
        <ele>214.861</ele>
        <time>2017-08-22T07:45:01Z</time>
      </trkpt>
      <trkpt lat="44.2445" lon="0.90691">
        <ele>213.721</ele>
        <time>2017-08-22T07:45:05Z</time>
      </trkpt>
      <trkpt lat="44.2449" lon="0.9075">
        <ele>210.921</ele>
        <time>2017-08-22T07:45:13Z</time>
      </trkpt>
      <trkpt lat="44.24528" lon="0.90792">
        <ele>209.832</ele>
        <time>2017-08-22T07:45:20Z</time>
      </trkpt>
      <trkpt lat="44.24573" lon="0.90836">
        <ele>209.533</ele>
        <time>2017-08-22T07:45:29Z</time>
      </trkpt>
      <trkpt lat="44.24608" lon="0.90868">
        <ele>210.077</ele>
        <time>2017-08-22T07:45:37Z</time>
      </trkpt>
      <trkpt lat="44.24633" lon="0.90889">
        <ele>211.163</ele>
        <time>2017-08-22T07:45:45Z</time>
      </trkpt>
      <trkpt lat="44.24653" lon="0.90906">
        <ele>212.403</ele>
        <time>2017-08-22T07:45:53Z</time>
      </trkpt>
      <trkpt lat="44.24671" lon="0.9092">
        <ele>213.355</ele>
        <time>2017-08-22T07:46:01Z</time>
      </trkpt>
      <trkpt lat="44.24692" lon="0.90934">
        <ele>215.115</ele>
        <time>2017-08-22T07:46:12Z</time>
      </trkpt>
      <trkpt lat="44.24704" lon="0.90942">
        <ele>216.305</ele>
        <time>2017-08-22T07:46:19Z</time>
      </trkpt>
      <trkpt lat="44.24721" lon="0.90948">
        <ele>216.775</ele>
        <time>2017-08-22T07:46:28Z</time>
      </trkpt>
      <trkpt lat="44.24742" lon="0.90952">
        <ele>216.545</ele>
        <time>2017-08-22T07:46:37Z</time>
      </trkpt>
      <trkpt lat="44.24768" lon="0.90952">
        <ele>216.084</ele>
        <time>2017-08-22T07:46:45Z</time>
      </trkpt>
      <trkpt lat="44.24797" lon="0.90945">
        <ele>215.874</ele>
        <time>2017-08-22T07:46:54Z</time>
      </trkpt>
      <trkpt lat="44.24825" lon="0.90931">
        <ele>216.015</ele>
        <time>2017-08-22T07:47:03Z</time>
      </trkpt>
      <trkpt lat="44.24856" lon="0.90917">
        <ele>216.335</ele>
        <time>2017-08-22T07:47:13Z</time>
      </trkpt>
      <trkpt lat="44.24883" lon="0.90904">
        <ele>217.535</ele>
        <time>2017-08-22T07:47:23Z</time>
      </trkpt>
      <trkpt lat="44.24901" lon="0.90895">
        <ele>219.266</ele>
        <time>2017-08-22T07:47:31Z</time>
      </trkpt>
      <trkpt lat="44.24915" lon="0.90889">
        <ele>221.306</ele>
        <time>2017-08-22T07:47:39Z</time>
      </trkpt>
      <trkpt lat="44.24933" lon="0.90882">
        <ele>223.155</ele>
        <time>2017-08-22T07:47:49Z</time>
      </trkpt>
      <trkpt lat="44.2495" lon="0.90876">
        <ele>225.437</ele>
        <time>2017-08-22T07:47:59Z</time>
      </trkpt>
      <trkpt lat="44.24963" lon="0.90874">
        <ele>227.317</ele>
        <time>2017-08-22T07:48:06Z</time>
      </trkpt>
      <trkpt lat="44.24978" lon="0.90873">
        <ele>229.807</ele>
        <time>2017-08-22T07:48:15Z</time>
      </trkpt>
      <trkpt lat="44.24995" lon="0.90875">
        <ele>231.096</ele>
        <time>2017-08-22T07:48:25Z</time>
      </trkpt>
      <trkpt lat="44.25007" lon="0.90879">
        <ele>229.906</ele>
        <time>2017-08-22T07:48:33Z</time>
      </trkpt>
      <trkpt lat="44.25013" lon="0.90881">
        <ele>228.836</ele>
        <time>2017-08-22T07:48:38Z</time>
      </trkpt>
      <trkpt lat="44.25015" lon="0.90881">
        <ele>225.236</ele>
        <time>2017-08-22T07:49:49Z</time>
      </trkpt>
      <trkpt lat="44.25015" lon="0.90886">
        <ele>224.326</ele>
        <time>2017-08-22T07:51:21Z</time>
      </trkpt>
      <trkpt lat="44.25024" lon="0.90889">
        <ele>224.766</ele>
        <time>2017-08-22T07:51:26Z</time>
      </trkpt>
      <trkpt lat="44.2504" lon="0.90894">
        <ele>225.366</ele>
        <time>2017-08-22T07:51:35Z</time>
      </trkpt>
      <trkpt lat="44.25042" lon="0.90894">
        <ele>225.556</ele>
        <time>2017-08-22T07:51:41Z</time>
      </trkpt>
      <trkpt lat="44.25047" lon="0.90896">
        <ele>225.966</ele>
        <time>2017-08-22T07:51:50Z</time>
      </trkpt>
      <trkpt lat="44.25058" lon="0.90899">
        <ele>226.076</ele>
        <time>2017-08-22T07:51:55Z</time>
      </trkpt>
      <trkpt lat="44.25084" lon="0.90903">
        <ele>226.286</ele>
        <time>2017-08-22T07:52:05Z</time>
      </trkpt>
      <trkpt lat="44.25111" lon="0.90905">
        <ele>226.387</ele>
        <time>2017-08-22T07:52:14Z</time>
      </trkpt>
      <trkpt lat="44.2515" lon="0.90904">
        <ele>226.286</ele>
        <time>2017-08-22T07:52:26Z</time>
      </trkpt>
      <trkpt lat="44.25187" lon="0.90908">
        <ele>224.845</ele>
        <time>2017-08-22T07:52:36Z</time>
      </trkpt>
      <trkpt lat="44.25224" lon="0.90922">
        <ele>223.205</ele>
        <time>2017-08-22T07:52:44Z</time>
      </trkpt>
      <trkpt lat="44.25256" lon="0.90943">
        <ele>222.812</ele>
        <time>2017-08-22T07:52:51Z</time>
      </trkpt>
      <trkpt lat="44.25293" lon="0.90976">
        <ele>221.556</ele>
        <time>2017-08-22T07:52:59Z</time>
      </trkpt>
      <trkpt lat="44.25341" lon="0.91031">
        <ele>220.227</ele>
        <time>2017-08-22T07:53:10Z</time>
      </trkpt>
      <trkpt lat="44.25385" lon="0.91079">
        <ele>219.937</ele>
        <time>2017-08-22T07:53:21Z</time>
      </trkpt>
      <trkpt lat="44.25421" lon="0.91115">
        <ele>220.608</ele>
        <time>2017-08-22T07:53:31Z</time>
      </trkpt>
      <trkpt lat="44.25451" lon="0.91144">
        <ele>220.747</ele>
        <time>2017-08-22T07:53:41Z</time>
      </trkpt>
      <trkpt lat="44.25476" lon="0.91167">
        <ele>219.346</ele>
        <time>2017-08-22T07:53:48Z</time>
      </trkpt>
      <trkpt lat="44.25502" lon="0.91197">
        <ele>217.175</ele>
        <time>2017-08-22T07:53:54Z</time>
      </trkpt>
      <trkpt lat="44.25523" lon="0.91235">
        <ele>215.397</ele>
        <time>2017-08-22T07:53:59Z</time>
      </trkpt>
      <trkpt lat="44.25549" lon="0.91298">
        <ele>214.378</ele>
        <time>2017-08-22T07:54:07Z</time>
      </trkpt>
      <trkpt lat="44.25572" lon="0.91358">
        <ele>214.509</ele>
        <time>2017-08-22T07:54:16Z</time>
      </trkpt>
      <trkpt lat="44.25589" lon="0.91403">
        <ele>216.15</ele>
        <time>2017-08-22T07:54:24Z</time>
      </trkpt>
      <trkpt lat="44.25597" lon="0.91428">
        <ele>217.64</ele>
        <time>2017-08-22T07:54:30Z</time>
      </trkpt>
      <trkpt lat="44.25597" lon="0.91444">
        <ele>218.35</ele>
        <time>2017-08-22T07:54:35Z</time>
      </trkpt>
      <trkpt lat="44.25591" lon="0.91464">
        <ele>219.47</ele>
        <time>2017-08-22T07:54:40Z</time>
      </trkpt>
      <trkpt lat="44.25575" lon="0.91483">
        <ele>220.239</ele>
        <time>2017-08-22T07:54:46Z</time>
      </trkpt>
      <trkpt lat="44.25536" lon="0.91506">
        <ele>220.529</ele>
        <time>2017-08-22T07:54:57Z</time>
      </trkpt>
      <trkpt lat="44.2551" lon="0.91526">
        <ele>220.239</ele>
        <time>2017-08-22T07:55:06Z</time>
      </trkpt>
      <trkpt lat="44.25498" lon="0.91549">
        <ele>220.079</ele>
        <time>2017-08-22T07:55:12Z</time>
      </trkpt>
      <trkpt lat="44.25491" lon="0.9158">
        <ele>220.14</ele>
        <time>2017-08-22T07:55:19Z</time>
      </trkpt>
      <trkpt lat="44.25488" lon="0.91598">
        <ele>220.732</ele>
        <time>2017-08-22T07:55:24Z</time>
      </trkpt>
      <trkpt lat="44.25479" lon="0.91641">
        <ele>221.79</ele>
        <time>2017-08-22T07:55:36Z</time>
      </trkpt>
      <trkpt lat="44.25474" lon="0.91673">
        <ele>222.95</ele>
        <time>2017-08-22T07:55:45Z</time>
      </trkpt>
      <trkpt lat="44.25478" lon="0.91701">
        <ele>224.36</ele>
        <time>2017-08-22T07:55:53Z</time>
      </trkpt>
      <trkpt lat="44.25489" lon="0.91714">
        <ele>225.19</ele>
        <time>2017-08-22T07:56:00Z</time>
      </trkpt>
      <trkpt lat="44.25501" lon="0.91725">
        <ele>225.81</ele>
        <time>2017-08-22T07:56:10Z</time>
      </trkpt>
      <trkpt lat="44.25519" lon="0.91742">
        <ele>225.519</ele>
        <time>2017-08-22T07:56:21Z</time>
      </trkpt>
      <trkpt lat="44.25537" lon="0.91759">
        <ele>224.759</ele>
        <time>2017-08-22T07:56:28Z</time>
      </trkpt>
      <trkpt lat="44.25572" lon="0.91795">
        <ele>223.899</ele>
        <time>2017-08-22T07:56:39Z</time>
      </trkpt>
      <trkpt lat="44.25607" lon="0.9183">
        <ele>223.439</ele>
        <time>2017-08-22T07:56:49Z</time>
      </trkpt>
      <trkpt lat="44.25626" lon="0.91853">
        <ele>223.179</ele>
        <time>2017-08-22T07:56:55Z</time>
      </trkpt>
      <trkpt lat="44.25632" lon="0.9188">
        <ele>222.92</ele>
        <time>2017-08-22T07:57:00Z</time>
      </trkpt>
      <trkpt lat="44.25632" lon="0.91886">
        <ele>222.83</ele>
        <time>2017-08-22T07:57:01Z</time>
      </trkpt>
      <trkpt lat="44.25628" lon="0.91923">
        <ele>222.34</ele>
        <time>2017-08-22T07:57:08Z</time>
      </trkpt>
      <trkpt lat="44.25636" lon="0.91949">
        <ele>222.531</ele>
        <time>2017-08-22T07:57:13Z</time>
      </trkpt>
      <trkpt lat="44.25642" lon="0.91956">
        <ele>222.661</ele>
        <time>2017-08-22T07:57:15Z</time>
      </trkpt>
      <trkpt lat="44.25661" lon="0.91967">
        <ele>222.901</ele>
        <time>2017-08-22T07:57:20Z</time>
      </trkpt>
      <trkpt lat="44.25702" lon="0.9198">
        <ele>223.841</ele>
        <time>2017-08-22T07:57:31Z</time>
      </trkpt>
      <trkpt lat="44.25732" lon="0.91988">
        <ele>224.41</ele>
        <time>2017-08-22T07:57:40Z</time>
      </trkpt>
      <trkpt lat="44.25753" lon="0.92007">
        <ele>224.591</ele>
        <time>2017-08-22T07:57:48Z</time>
      </trkpt>
      <trkpt lat="44.25772" lon="0.92033">
        <ele>224.63</ele>
        <time>2017-08-22T07:57:56Z</time>
      </trkpt>
      <trkpt lat="44.25784" lon="0.92066">
        <ele>224.582</ele>
        <time>2017-08-22T07:58:03Z</time>
      </trkpt>
      <trkpt lat="44.25795" lon="0.92124">
        <ele>225.272</ele>
        <time>2017-08-22T07:58:15Z</time>
      </trkpt>
      <trkpt lat="44.25804" lon="0.92174">
        <ele>225.852</ele>
        <time>2017-08-22T07:58:26Z</time>
      </trkpt>
      <trkpt lat="44.2581" lon="0.92211">
        <ele>226.612</ele>
        <time>2017-08-22T07:58:35Z</time>
      </trkpt>
      <trkpt lat="44.25819" lon="0.9225">
        <ele>227.922</ele>
        <time>2017-08-22T07:58:46Z</time>
      </trkpt>
      <trkpt lat="44.25832" lon="0.92264">
        <ele>228.522</ele>
        <time>2017-08-22T07:58:53Z</time>
      </trkpt>
      <trkpt lat="44.25851" lon="0.92282">
        <ele>229.393</ele>
        <time>2017-08-22T07:59:01Z</time>
      </trkpt>
      <trkpt lat="44.25882" lon="0.9231">
        <ele>228.622</ele>
        <time>2017-08-22T07:59:12Z</time>
      </trkpt>
      <trkpt lat="44.25906" lon="0.92337">
        <ele>227.472</ele>
        <time>2017-08-22T07:59:20Z</time>
      </trkpt>
      <trkpt lat="44.25926" lon="0.92375">
        <ele>226.552</ele>
        <time>2017-08-22T07:59:28Z</time>
      </trkpt>
      <trkpt lat="44.2593" lon="0.92385">
        <ele>226.412</ele>
        <time>2017-08-22T07:59:30Z</time>
      </trkpt>
      <trkpt lat="44.25945" lon="0.9244">
        <ele>225.772</ele>
        <time>2017-08-22T07:59:40Z</time>
      </trkpt>
      <trkpt lat="44.25961" lon="0.92493">
        <ele>225.322</ele>
        <time>2017-08-22T07:59:50Z</time>
      </trkpt>
      <trkpt lat="44.25976" lon="0.92539">
        <ele>225.393</ele>
        <time>2017-08-22T08:00:00Z</time>
      </trkpt>
      <trkpt lat="44.25992" lon="0.92586">
        <ele>225.413</ele>
        <time>2017-08-22T08:00:10Z</time>
      </trkpt>
      <trkpt lat="44.26008" lon="0.92628">
        <ele>225.544</ele>
        <time>2017-08-22T08:00:19Z</time>
      </trkpt>
      <trkpt lat="44.26012" lon="0.92661">
        <ele>225.934</ele>
        <time>2017-08-22T08:00:26Z</time>
      </trkpt>
      <trkpt lat="44.26011" lon="0.92695">
        <ele>225.614</ele>
        <time>2017-08-22T08:00:34Z</time>
      </trkpt>
      <trkpt lat="44.26007" lon="0.92725">
        <ele>224.934</ele>
        <time>2017-08-22T08:00:42Z</time>
      </trkpt>
      <trkpt lat="44.26009" lon="0.92749">
        <ele>225.134</ele>
        <time>2017-08-22T08:00:49Z</time>
      </trkpt>
      <trkpt lat="44.26019" lon="0.92756">
        <ele>225.054</ele>
        <time>2017-08-22T08:00:54Z</time>
      </trkpt>
      <trkpt lat="44.26036" lon="0.92754">
        <ele>224.654</ele>
        <time>2017-08-22T08:01:01Z</time>
      </trkpt>
      <trkpt lat="44.26065" lon="0.92749">
        <ele>224.254</ele>
        <time>2017-08-22T08:01:12Z</time>
      </trkpt>
      <trkpt lat="44.26084" lon="0.92746">
        <ele>223.984</ele>
        <time>2017-08-22T08:01:20Z</time>
      </trkpt>
      <trkpt lat="44.26106" lon="0.92742">
        <ele>223.824</ele>
        <time>2017-08-22T08:01:29Z</time>
      </trkpt>
      <trkpt lat="44.26133" lon="0.92739">
        <ele>224.454</ele>
        <time>2017-08-22T08:01:39Z</time>
      </trkpt>
      <trkpt lat="44.2616" lon="0.92738">
        <ele>225.604</ele>
        <time>2017-08-22T08:01:49Z</time>
      </trkpt>
      <trkpt lat="44.26187" lon="0.92738">
        <ele>226.534</ele>
        <time>2017-08-22T08:01:58Z</time>
      </trkpt>
      <trkpt lat="44.26199" lon="0.92738">
        <ele>226.554</ele>
        <time>2017-08-22T08:02:02Z</time>
      </trkpt>
      <trkpt lat="44.26216" lon="0.92739">
        <ele>227.125</ele>
        <time>2017-08-22T08:02:08Z</time>
      </trkpt>
      <trkpt lat="44.26251" lon="0.92747">
        <ele>227.455</ele>
        <time>2017-08-22T08:02:18Z</time>
      </trkpt>
      <trkpt lat="44.26257" lon="0.9275">
        <ele>227.714</ele>
        <time>2017-08-22T08:02:21Z</time>
      </trkpt>
      <trkpt lat="44.26258" lon="0.9275">
        <ele>228.215</ele>
        <time>2017-08-22T08:02:30Z</time>
      </trkpt>
      <trkpt lat="44.26258" lon="0.9275">
        <ele>233.525</ele>
        <time>2017-08-22T08:04:04Z</time>
      </trkpt>
      <trkpt lat="44.26269" lon="0.92751">
        <ele>233.735</ele>
        <time>2017-08-22T08:04:12Z</time>
      </trkpt>
      <trkpt lat="44.26288" lon="0.92757">
        <ele>233.755</ele>
        <time>2017-08-22T08:04:19Z</time>
      </trkpt>
      <trkpt lat="44.26303" lon="0.9276">
        <ele>234.186</ele>
        <time>2017-08-22T08:04:25Z</time>
      </trkpt>
      <trkpt lat="44.26335" lon="0.92769">
        <ele>233.235</ele>
        <time>2017-08-22T08:04:37Z</time>
      </trkpt>
      <trkpt lat="44.26362" lon="0.92776">
        <ele>233.025</ele>
        <time>2017-08-22T08:04:47Z</time>
      </trkpt>
      <trkpt lat="44.26401" lon="0.92786">
        <ele>232.595</ele>
        <time>2017-08-22T08:05:00Z</time>
      </trkpt>
      <trkpt lat="44.26434" lon="0.92795">
        <ele>232.286</ele>
        <time>2017-08-22T08:05:11Z</time>
      </trkpt>
      <trkpt lat="44.26459" lon="0.92802">
        <ele>231.805</ele>
        <time>2017-08-22T08:05:19Z</time>
      </trkpt>
      <trkpt lat="44.26495" lon="0.92811">
        <ele>231.116</ele>
        <time>2017-08-22T08:05:29Z</time>
      </trkpt>
      <trkpt lat="44.26524" lon="0.92813">
        <ele>231.006</ele>
        <time>2017-08-22T08:05:37Z</time>
      </trkpt>
      <trkpt lat="44.26552" lon="0.92801">
        <ele>230.946</ele>
        <time>2017-08-22T08:05:45Z</time>
      </trkpt>
      <trkpt lat="44.26588" lon="0.92776">
        <ele>231.766</ele>
        <time>2017-08-22T08:05:57Z</time>
      </trkpt>
      <trkpt lat="44.26611" lon="0.9276">
        <ele>232.827</ele>
        <time>2017-08-22T08:06:06Z</time>
      </trkpt>
      <trkpt lat="44.26617" lon="0.92766">
        <ele>233.227</ele>
        <time>2017-08-22T08:06:10Z</time>
      </trkpt>
      <trkpt lat="44.26616" lon="0.92769">
        <ele>233.248</ele>
        <time>2017-08-22T08:06:11Z</time>
      </trkpt>
      <trkpt lat="44.26612" lon="0.92789">
        <ele>233.157</ele>
        <time>2017-08-22T08:06:17Z</time>
      </trkpt>
      <trkpt lat="44.26601" lon="0.92833">
        <ele>233.067</ele>
        <time>2017-08-22T08:06:28Z</time>
      </trkpt>
      <trkpt lat="44.26588" lon="0.92884">
        <ele>234.007</ele>
        <time>2017-08-22T08:06:40Z</time>
      </trkpt>
      <trkpt lat="44.26578" lon="0.92923">
        <ele>234.577</ele>
        <time>2017-08-22T08:06:49Z</time>
      </trkpt>
      <trkpt lat="44.26566" lon="0.92973">
        <ele>234.756</ele>
        <time>2017-08-22T08:07:00Z</time>
      </trkpt>
      <trkpt lat="44.26559" lon="0.93005">
        <ele>234.587</ele>
        <time>2017-08-22T08:07:07Z</time>
      </trkpt>
      <trkpt lat="44.26544" lon="0.93066">
        <ele>234.457</ele>
        <time>2017-08-22T08:07:20Z</time>
      </trkpt>
      <trkpt lat="44.26532" lon="0.93119">
        <ele>234.207</ele>
        <time>2017-08-22T08:07:29Z</time>
      </trkpt>
      <trkpt lat="44.2652" lon="0.93165">
        <ele>233.807</ele>
        <time>2017-08-22T08:07:37Z</time>
      </trkpt>
      <trkpt lat="44.26507" lon="0.93224">
        <ele>233.397</ele>
        <time>2017-08-22T08:07:48Z</time>
      </trkpt>
      <trkpt lat="44.26498" lon="0.93267">
        <ele>233.127</ele>
        <time>2017-08-22T08:07:56Z</time>
      </trkpt>
      <trkpt lat="44.26489" lon="0.93323">
        <ele>233.018</ele>
        <time>2017-08-22T08:08:07Z</time>
      </trkpt>
      <trkpt lat="44.26479" lon="0.93383">
        <ele>233.348</ele>
        <time>2017-08-22T08:08:19Z</time>
      </trkpt>
      <trkpt lat="44.26476" lon="0.93402">
        <ele>233.308</ele>
        <time>2017-08-22T08:08:25Z</time>
      </trkpt>
      <trkpt lat="44.26474" lon="0.93415">
        <ele>233.137</ele>
        <time>2017-08-22T08:08:30Z</time>
      </trkpt>
      <trkpt lat="44.26471" lon="0.93431">
        <ele>233.238</ele>
        <time>2017-08-22T08:08:35Z</time>
      </trkpt>
      <trkpt lat="44.26467" lon="0.93454">
        <ele>233.417</ele>
        <time>2017-08-22T08:08:42Z</time>
      </trkpt>
      <trkpt lat="44.26462" lon="0.93486">
        <ele>233.788</ele>
        <time>2017-08-22T08:08:51Z</time>
      </trkpt>
      <trkpt lat="44.26456" lon="0.93519">
        <ele>234.328</ele>
        <time>2017-08-22T08:09:01Z</time>
      </trkpt>
      <trkpt lat="44.2645" lon="0.93556">
        <ele>234.987</ele>
        <time>2017-08-22T08:09:12Z</time>
      </trkpt>
      <trkpt lat="44.26444" lon="0.93589">
        <ele>235.018</ele>
        <time>2017-08-22T08:09:22Z</time>
      </trkpt>
      <trkpt lat="44.26437" lon="0.93626">
        <ele>235.278</ele>
        <time>2017-08-22T08:09:33Z</time>
      </trkpt>
      <trkpt lat="44.26429" lon="0.93664">
        <ele>235.538</ele>
        <time>2017-08-22T08:09:44Z</time>
      </trkpt>
      <trkpt lat="44.26418" lon="0.93701">
        <ele>235.878</ele>
        <time>2017-08-22T08:09:55Z</time>
      </trkpt>
      <trkpt lat="44.26404" lon="0.93737">
        <ele>236.188</ele>
        <time>2017-08-22T08:10:06Z</time>
      </trkpt>
      <trkpt lat="44.2639" lon="0.93766">
        <ele>236.478</ele>
        <time>2017-08-22T08:10:15Z</time>
      </trkpt>
      <trkpt lat="44.26375" lon="0.93791">
        <ele>236.658</ele>
        <time>2017-08-22T08:10:24Z</time>
      </trkpt>
      <trkpt lat="44.26358" lon="0.93819">
        <ele>236.318</ele>
        <time>2017-08-22T08:10:34Z</time>
      </trkpt>
      <trkpt lat="44.26339" lon="0.93848">
        <ele>236.028</ele>
        <time>2017-08-22T08:10:43Z</time>
      </trkpt>
      <trkpt lat="44.26311" lon="0.93879">
        <ele>235.637</ele>
        <time>2017-08-22T08:10:52Z</time>
      </trkpt>
      <trkpt lat="44.2628" lon="0.93902">
        <ele>235.257</ele>
        <time>2017-08-22T08:11:00Z</time>
      </trkpt>
      <trkpt lat="44.26233" lon="0.93925">
        <ele>234.997</ele>
        <time>2017-08-22T08:11:10Z</time>
      </trkpt>
      <trkpt lat="44.26197" lon="0.93941">
        <ele>234.837</ele>
        <time>2017-08-22T08:11:18Z</time>
      </trkpt>
      <trkpt lat="44.26156" lon="0.93961">
        <ele>235.068</ele>
        <time>2017-08-22T08:11:28Z</time>
      </trkpt>
      <trkpt lat="44.26114" lon="0.9398">
        <ele>234.678</ele>
        <time>2017-08-22T08:11:39Z</time>
      </trkpt>
      <trkpt lat="44.26074" lon="0.93998">
        <ele>234.548</ele>
        <time>2017-08-22T08:11:50Z</time>
      </trkpt>
      <trkpt lat="44.26056" lon="0.94006">
        <ele>234.458</ele>
        <time>2017-08-22T08:11:57Z</time>
      </trkpt>
      <trkpt lat="44.26031" lon="0.9402">
        <ele>234.777</ele>
        <time>2017-08-22T08:12:06Z</time>
      </trkpt>
      <trkpt lat="44.2601" lon="0.9404">
        <ele>235.268</ele>
        <time>2017-08-22T08:12:15Z</time>
      </trkpt>
      <trkpt lat="44.25991" lon="0.94068">
        <ele>235.206</ele>
        <time>2017-08-22T08:12:24Z</time>
      </trkpt>
      <trkpt lat="44.25978" lon="0.94097">
        <ele>235.678</ele>
        <time>2017-08-22T08:12:32Z</time>
      </trkpt>
      <trkpt lat="44.25958" lon="0.94148">
        <ele>236.427</ele>
        <time>2017-08-22T08:12:45Z</time>
      </trkpt>
      <trkpt lat="44.25943" lon="0.94185">
        <ele>236.807</ele>
        <time>2017-08-22T08:12:55Z</time>
      </trkpt>
      <trkpt lat="44.25929" lon="0.94223">
        <ele>237.068</ele>
        <time>2017-08-22T08:13:05Z</time>
      </trkpt>
      <trkpt lat="44.25915" lon="0.94261">
        <ele>237.119</ele>
        <time>2017-08-22T08:13:15Z</time>
      </trkpt>
      <trkpt lat="44.25904" lon="0.94295">
        <ele>236.426</ele>
        <time>2017-08-22T08:13:24Z</time>
      </trkpt>
      <trkpt lat="44.25898" lon="0.94319">
        <ele>236.156</ele>
        <time>2017-08-22T08:13:30Z</time>
      </trkpt>
      <trkpt lat="44.25889" lon="0.94358">
        <ele>235.126</ele>
        <time>2017-08-22T08:13:40Z</time>
      </trkpt>
      <trkpt lat="44.25883" lon="0.94396">
        <ele>234.796</ele>
        <time>2017-08-22T08:13:47Z</time>
      </trkpt>
      <trkpt lat="44.25873" lon="0.94453">
        <ele>234.956</ele>
        <time>2017-08-22T08:13:57Z</time>
      </trkpt>
      <trkpt lat="44.25864" lon="0.94507">
        <ele>235.266</ele>
        <time>2017-08-22T08:14:07Z</time>
      </trkpt>
      <trkpt lat="44.25853" lon="0.94569">
        <ele>234.496</ele>
        <time>2017-08-22T08:14:18Z</time>
      </trkpt>
      <trkpt lat="44.25843" lon="0.94629">
        <ele>233.646</ele>
        <time>2017-08-22T08:14:28Z</time>
      </trkpt>
      <trkpt lat="44.25829" lon="0.94709">
        <ele>232.356</ele>
        <time>2017-08-22T08:14:41Z</time>
      </trkpt>
      <trkpt lat="44.25821" lon="0.94758">
        <ele>231.686</ele>
        <time>2017-08-22T08:14:49Z</time>
      </trkpt>
      <trkpt lat="44.25813" lon="0.94797">
        <ele>232.267</ele>
        <time>2017-08-22T08:14:57Z</time>
      </trkpt>
      <trkpt lat="44.25813" lon="0.94797">
        <ele>232.887</ele>
        <time>2017-08-22T08:15:05Z</time>
      </trkpt>
      <trkpt lat="44.25812" lon="0.94804">
        <ele>234.317</ele>
        <time>2017-08-22T08:16:33Z</time>
      </trkpt>
      <trkpt lat="44.25811" lon="0.94806">
        <ele>234.447</ele>
        <time>2017-08-22T08:16:34Z</time>
      </trkpt>
      <trkpt lat="44.25816" lon="0.94819">
        <ele>233.726</ele>
        <time>2017-08-22T08:16:39Z</time>
      </trkpt>
      <trkpt lat="44.25818" lon="0.94822">
        <ele>233.536</ele>
        <time>2017-08-22T08:16:40Z</time>
      </trkpt>
      <trkpt lat="44.25841" lon="0.9486">
        <ele>232.046</ele>
        <time>2017-08-22T08:16:49Z</time>
      </trkpt>
      <trkpt lat="44.25858" lon="0.949">
        <ele>231.086</ele>
        <time>2017-08-22T08:16:56Z</time>
      </trkpt>
      <trkpt lat="44.25881" lon="0.94966">
        <ele>230.057</ele>
        <time>2017-08-22T08:17:07Z</time>
      </trkpt>
      <trkpt lat="44.25904" lon="0.95029">
        <ele>229.888</ele>
        <time>2017-08-22T08:17:18Z</time>
      </trkpt>
      <trkpt lat="44.25923" lon="0.95084">
        <ele>230.008</ele>
        <time>2017-08-22T08:17:27Z</time>
      </trkpt>
      <trkpt lat="44.25943" lon="0.95143">
        <ele>230.027</ele>
        <time>2017-08-22T08:17:37Z</time>
      </trkpt>
      <trkpt lat="44.25972" lon="0.95224">
        <ele>230.438</ele>
        <time>2017-08-22T08:17:50Z</time>
      </trkpt>
      <trkpt lat="44.25975" lon="0.9523">
        <ele>230.809</ele>
        <time>2017-08-22T08:17:51Z</time>
      </trkpt>
      <trkpt lat="44.25997" lon="0.95293">
        <ele>231.208</ele>
        <time>2017-08-22T08:18:01Z</time>
      </trkpt>
      <trkpt lat="44.26015" lon="0.9534">
        <ele>229.796</ele>
        <time>2017-08-22T08:18:08Z</time>
      </trkpt>
      <trkpt lat="44.26038" lon="0.95389">
        <ele>228.066</ele>
        <time>2017-08-22T08:18:14Z</time>
      </trkpt>
      <trkpt lat="44.26076" lon="0.9545">
        <ele>224.427</ele>
        <time>2017-08-22T08:18:21Z</time>
      </trkpt>
      <trkpt lat="44.26137" lon="0.95531">
        <ele>221.597</ele>
        <time>2017-08-22T08:18:31Z</time>
      </trkpt>
      <trkpt lat="44.26176" lon="0.95568">
        <ele>222.25</ele>
        <time>2017-08-22T08:18:37Z</time>
      </trkpt>
      <trkpt lat="44.26208" lon="0.95592">
        <ele>224.071</ele>
        <time>2017-08-22T08:18:43Z</time>
      </trkpt>
      <trkpt lat="44.26228" lon="0.95612">
        <ele>225.581</ele>
        <time>2017-08-22T08:18:49Z</time>
      </trkpt>
      <trkpt lat="44.26237" lon="0.95621">
        <ele>225.55</ele>
        <time>2017-08-22T08:18:54Z</time>
      </trkpt>
      <trkpt lat="44.26248" lon="0.95635">
        <ele>226.91</ele>
        <time>2017-08-22T08:19:01Z</time>
      </trkpt>
      <trkpt lat="44.26259" lon="0.9565">
        <ele>227.92</ele>
        <time>2017-08-22T08:19:09Z</time>
      </trkpt>
      <trkpt lat="44.26271" lon="0.95671">
        <ele>232.483</ele>
        <time>2017-08-22T08:19:20Z</time>
      </trkpt>
      <trkpt lat="44.2628" lon="0.95684">
        <ele>238.873</ele>
        <time>2017-08-22T08:19:29Z</time>
      </trkpt>
      <trkpt lat="44.26288" lon="0.95696">
        <ele>242.345</ele>
        <time>2017-08-22T08:19:37Z</time>
      </trkpt>
      <trkpt lat="44.26292" lon="0.95712">
        <ele>242.641</ele>
        <time>2017-08-22T08:19:46Z</time>
      </trkpt>
      <trkpt lat="44.26296" lon="0.95729">
        <ele>240.661</ele>
        <time>2017-08-22T08:19:55Z</time>
      </trkpt>
      <trkpt lat="44.26294" lon="0.95747">
        <ele>239.901</ele>
        <time>2017-08-22T08:20:03Z</time>
      </trkpt>
      <trkpt lat="44.26288" lon="0.95769">
        <ele>237.88</ele>
        <time>2017-08-22T08:20:13Z</time>
      </trkpt>
      <trkpt lat="44.26285" lon="0.95785">
        <ele>237.211</ele>
        <time>2017-08-22T08:20:21Z</time>
      </trkpt>
      <trkpt lat="44.26281" lon="0.95797">
        <ele>236.671</ele>
        <time>2017-08-22T08:20:28Z</time>
      </trkpt>
      <trkpt lat="44.2627" lon="0.95803">
        <ele>240.603</ele>
        <time>2017-08-22T08:20:36Z</time>
      </trkpt>
      <trkpt lat="44.26258" lon="0.9581">
        <ele>248.754</ele>
        <time>2017-08-22T08:20:44Z</time>
      </trkpt>
      <trkpt lat="44.26246" lon="0.95816">
        <ele>254.872</ele>
        <time>2017-08-22T08:20:54Z</time>
      </trkpt>
      <trkpt lat="44.26238" lon="0.9582">
        <ele>256.322</ele>
        <time>2017-08-22T08:21:00Z</time>
      </trkpt>
      <trkpt lat="44.26229" lon="0.95824">
        <ele>263.465</ele>
        <time>2017-08-22T08:21:06Z</time>
      </trkpt>
      <trkpt lat="44.26214" lon="0.95832">
        <ele>263.693</ele>
        <time>2017-08-22T08:21:16Z</time>
      </trkpt>
      <trkpt lat="44.26205" lon="0.95836">
        <ele>264.073</ele>
        <time>2017-08-22T08:21:22Z</time>
      </trkpt>
      <trkpt lat="44.26196" lon="0.95842">
        <ele>257.69</ele>
        <time>2017-08-22T08:21:30Z</time>
      </trkpt>
      <trkpt lat="44.26185" lon="0.95847">
        <ele>257.841</ele>
        <time>2017-08-22T08:21:37Z</time>
      </trkpt>
      <trkpt lat="44.26172" lon="0.9586">
        <ele>252.13</ele>
        <time>2017-08-22T08:21:45Z</time>
      </trkpt>
      <trkpt lat="44.26164" lon="0.95874">
        <ele>251.031</ele>
        <time>2017-08-22T08:21:52Z</time>
      </trkpt>
      <trkpt lat="44.26152" lon="0.95889">
        <ele>248.57</ele>
        <time>2017-08-22T08:21:59Z</time>
      </trkpt>
      <trkpt lat="44.26137" lon="0.95907">
        <ele>248.791</ele>
        <time>2017-08-22T08:22:07Z</time>
      </trkpt>
      <trkpt lat="44.26121" lon="0.95928">
        <ele>247.94</ele>
        <time>2017-08-22T08:22:16Z</time>
      </trkpt>
      <trkpt lat="44.26104" lon="0.9595">
        <ele>246.87</ele>
        <time>2017-08-22T08:22:25Z</time>
      </trkpt>
      <trkpt lat="44.26089" lon="0.95967">
        <ele>246.42</ele>
        <time>2017-08-22T08:22:32Z</time>
      </trkpt>
      <trkpt lat="44.26074" lon="0.95986">
        <ele>248.021</ele>
        <time>2017-08-22T08:22:40Z</time>
      </trkpt>
      <trkpt lat="44.2606" lon="0.95999">
        <ele>249.911</ele>
        <time>2017-08-22T08:22:47Z</time>
      </trkpt>
      <trkpt lat="44.26058" lon="0.96001">
        <ele>246.67</ele>
        <time>2017-08-22T08:22:51Z</time>
      </trkpt>
      <trkpt lat="44.26057" lon="0.96001">
        <ele>248.801</ele>
        <time>2017-08-22T08:23:03Z</time>
      </trkpt>
      <trkpt lat="44.2606" lon="0.96002">
        <ele>243.751</ele>
        <time>2017-08-22T08:25:56Z</time>
      </trkpt>
      <trkpt lat="44.2606" lon="0.96001">
        <ele>244.322</ele>
        <time>2017-08-22T08:26:07Z</time>
      </trkpt>
      <trkpt lat="44.26064" lon="0.96003">
        <ele>244.401</ele>
        <time>2017-08-22T08:26:10Z</time>
      </trkpt>
      <trkpt lat="44.26068" lon="0.95998">
        <ele>244.781</ele>
        <time>2017-08-22T08:26:15Z</time>
      </trkpt>
      <trkpt lat="44.26077" lon="0.95988">
        <ele>244.169</ele>
        <time>2017-08-22T08:26:23Z</time>
      </trkpt>
      <trkpt lat="44.26087" lon="0.95975">
        <ele>241.709</ele>
        <time>2017-08-22T08:26:30Z</time>
      </trkpt>
      <trkpt lat="44.26101" lon="0.95958">
        <ele>243.771</ele>
        <time>2017-08-22T08:26:38Z</time>
      </trkpt>
      <trkpt lat="44.26116" lon="0.95938">
        <ele>244.88</ele>
        <time>2017-08-22T08:26:46Z</time>
      </trkpt>
      <trkpt lat="44.26136" lon="0.95905">
        <ele>241.33</ele>
        <time>2017-08-22T08:26:56Z</time>
      </trkpt>
      <trkpt lat="44.26155" lon="0.95884">
        <ele>241.56</ele>
        <time>2017-08-22T08:27:04Z</time>
      </trkpt>
      <trkpt lat="44.26169" lon="0.95869">
        <ele>239.819</ele>
        <time>2017-08-22T08:27:10Z</time>
      </trkpt>
      <trkpt lat="44.26172" lon="0.95869">
        <ele>240.09</ele>
        <time>2017-08-22T08:27:11Z</time>
      </trkpt>
      <trkpt lat="44.26184" lon="0.95881">
        <ele>241.93</ele>
        <time>2017-08-22T08:27:15Z</time>
      </trkpt>
      <trkpt lat="44.26194" lon="0.95906">
        <ele>238.92</ele>
        <time>2017-08-22T08:27:22Z</time>
      </trkpt>
      <trkpt lat="44.26195" lon="0.9591">
        <ele>238.45</ele>
        <time>2017-08-22T08:27:27Z</time>
      </trkpt>
      <trkpt lat="44.26195" lon="0.9591">
        <ele>238.561</ele>
        <time>2017-08-22T08:27:29Z</time>
      </trkpt>
      <trkpt lat="44.26197" lon="0.95914">
        <ele>238.3</ele>
        <time>2017-08-22T08:27:34Z</time>
      </trkpt>
      <trkpt lat="44.26196" lon="0.95914">
        <ele>241.653</ele>
        <time>2017-08-22T08:28:10Z</time>
      </trkpt>
      <trkpt lat="44.26203" lon="0.9592">
        <ele>239.78</ele>
        <time>2017-08-22T08:28:16Z</time>
      </trkpt>
      <trkpt lat="44.26216" lon="0.9592">
        <ele>237.92</ele>
        <time>2017-08-22T08:28:22Z</time>
      </trkpt>
      <trkpt lat="44.26221" lon="0.95917">
        <ele>238.101</ele>
        <time>2017-08-22T08:28:24Z</time>
      </trkpt>
      <trkpt lat="44.26251" lon="0.95909">
        <ele>238.961</ele>
        <time>2017-08-22T08:28:33Z</time>
      </trkpt>
      <trkpt lat="44.2627" lon="0.95919">
        <ele>241.793</ele>
        <time>2017-08-22T08:28:38Z</time>
      </trkpt>
      <trkpt lat="44.26274" lon="0.95921">
        <ele>242.243</ele>
        <time>2017-08-22T08:28:39Z</time>
      </trkpt>
      <trkpt lat="44.26286" lon="0.95924">
        <ele>242.063</ele>
        <time>2017-08-22T08:28:42Z</time>
      </trkpt>
      <trkpt lat="44.26302" lon="0.95914">
        <ele>240.981</ele>
        <time>2017-08-22T08:28:46Z</time>
      </trkpt>
      <trkpt lat="44.26311" lon="0.95903">
        <ele>240.03</ele>
        <time>2017-08-22T08:28:50Z</time>
      </trkpt>
      <trkpt lat="44.26313" lon="0.959">
        <ele>240.581</ele>
        <time>2017-08-22T08:28:53Z</time>
      </trkpt>
      <trkpt lat="44.26307" lon="0.9589">
        <ele>242.462</ele>
        <time>2017-08-22T08:28:59Z</time>
      </trkpt>
      <trkpt lat="44.26298" lon="0.95873">
        <ele>240.45</ele>
        <time>2017-08-22T08:29:07Z</time>
      </trkpt>
      <trkpt lat="44.26292" lon="0.95845">
        <ele>238.941</ele>
        <time>2017-08-22T08:29:16Z</time>
      </trkpt>
      <trkpt lat="44.26289" lon="0.95823">
        <ele>241.071</ele>
        <time>2017-08-22T08:29:24Z</time>
      </trkpt>
      <trkpt lat="44.26283" lon="0.95813">
        <ele>239.82</ele>
        <time>2017-08-22T08:29:30Z</time>
      </trkpt>
      <trkpt lat="44.26281" lon="0.95811">
        <ele>239.56</ele>
        <time>2017-08-22T08:29:31Z</time>
      </trkpt>
      <trkpt lat="44.26266" lon="0.95803">
        <ele>240.882</ele>
        <time>2017-08-22T08:29:35Z</time>
      </trkpt>
      <trkpt lat="44.26219" lon="0.95829">
        <ele>246.603</ele>
        <time>2017-08-22T08:29:44Z</time>
      </trkpt>
      <trkpt lat="44.26203" lon="0.95837">
        <ele>247.072</ele>
        <time>2017-08-22T08:29:49Z</time>
      </trkpt>
      <trkpt lat="44.26201" lon="0.95839">
        <ele>245.851</ele>
        <time>2017-08-22T08:29:52Z</time>
      </trkpt>
      <trkpt lat="44.26203" lon="0.95838">
        <ele>245.743</ele>
        <time>2017-08-22T08:29:58Z</time>
      </trkpt>
      <trkpt lat="44.26205" lon="0.95829">
        <ele>232.381</ele>
        <time>2017-08-22T08:31:29Z</time>
      </trkpt>
      <trkpt lat="44.26199" lon="0.95822">
        <ele>240.081</ele>
        <time>2017-08-22T08:32:12Z</time>
      </trkpt>
      <trkpt lat="44.26196" lon="0.95819">
        <ele>240.461</ele>
        <time>2017-08-22T08:32:19Z</time>
      </trkpt>
      <trkpt lat="44.26198" lon="0.95819">
        <ele>241.011</ele>
        <time>2017-08-22T08:32:24Z</time>
      </trkpt>
      <trkpt lat="44.26204" lon="0.95818">
        <ele>244.501</ele>
        <time>2017-08-22T08:32:31Z</time>
      </trkpt>
      <trkpt lat="44.26205" lon="0.95817">
        <ele>245.241</ele>
        <time>2017-08-22T08:32:32Z</time>
      </trkpt>
      <trkpt lat="44.26222" lon="0.95812">
        <ele>249.333</ele>
        <time>2017-08-22T08:32:36Z</time>
      </trkpt>
      <trkpt lat="44.26276" lon="0.95792">
        <ele>252.443</ele>
        <time>2017-08-22T08:32:45Z</time>
      </trkpt>
      <trkpt lat="44.26279" lon="0.95791">
        <ele>250.212</ele>
        <time>2017-08-22T08:32:46Z</time>
      </trkpt>
      <trkpt lat="44.26287" lon="0.95802">
        <ele>248.121</ele>
        <time>2017-08-22T08:32:50Z</time>
      </trkpt>
      <trkpt lat="44.26288" lon="0.95806">
        <ele>248.011</ele>
        <time>2017-08-22T08:32:51Z</time>
      </trkpt>
      <trkpt lat="44.26288" lon="0.95814">
        <ele>246.14</ele>
        <time>2017-08-22T08:32:57Z</time>
      </trkpt>
      <trkpt lat="44.26287" lon="0.95819">
        <ele>241.321</ele>
        <time>2017-08-22T08:33:35Z</time>
      </trkpt>
      <trkpt lat="44.26287" lon="0.9582">
        <ele>241.471</ele>
        <time>2017-08-22T08:33:47Z</time>
      </trkpt>
      <trkpt lat="44.26292" lon="0.95817">
        <ele>241.741</ele>
        <time>2017-08-22T08:33:51Z</time>
      </trkpt>
      <trkpt lat="44.26296" lon="0.95816">
        <ele>242.031</ele>
        <time>2017-08-22T08:33:53Z</time>
      </trkpt>
      <trkpt lat="44.263" lon="0.95813">
        <ele>242.982</ele>
        <time>2017-08-22T08:33:56Z</time>
      </trkpt>
      <trkpt lat="44.26311" lon="0.9581">
        <ele>245.082</ele>
        <time>2017-08-22T08:34:02Z</time>
      </trkpt>
      <trkpt lat="44.26323" lon="0.95806">
        <ele>240.57</ele>
        <time>2017-08-22T08:34:09Z</time>
      </trkpt>
      <trkpt lat="44.26327" lon="0.95807">
        <ele>235.94</ele>
        <time>2017-08-22T08:34:14Z</time>
      </trkpt>
      <trkpt lat="44.2633" lon="0.95819">
        <ele>235.372</ele>
        <time>2017-08-22T08:34:20Z</time>
      </trkpt>
      <trkpt lat="44.26333" lon="0.95826">
        <ele>235.601</ele>
        <time>2017-08-22T08:34:23Z</time>
      </trkpt>
      <trkpt lat="44.26337" lon="0.95824">
        <ele>236.18</ele>
        <time>2017-08-22T08:34:28Z</time>
      </trkpt>
      <trkpt lat="44.26336" lon="0.95823">
        <ele>236.2</ele>
        <time>2017-08-22T08:34:29Z</time>
      </trkpt>
      <trkpt lat="44.26334" lon="0.95822">
        <ele>236.11</ele>
        <time>2017-08-22T08:34:31Z</time>
      </trkpt>
      <trkpt lat="44.26331" lon="0.95825">
        <ele>236.861</ele>
        <time>2017-08-22T08:34:37Z</time>
      </trkpt>
      <trkpt lat="44.26336" lon="0.95834">
        <ele>239.452</ele>
        <time>2017-08-22T08:34:44Z</time>
      </trkpt>
      <trkpt lat="44.26336" lon="0.95839">
        <ele>242.043</ele>
        <time>2017-08-22T08:34:49Z</time>
      </trkpt>
      <trkpt lat="44.26332" lon="0.95831">
        <ele>243.012</ele>
        <time>2017-08-22T08:34:55Z</time>
      </trkpt>
      <trkpt lat="44.26332" lon="0.95829">
        <ele>243.292</ele>
        <time>2017-08-22T08:34:56Z</time>
      </trkpt>
      <trkpt lat="44.2633" lon="0.95807">
        <ele>240.531</ele>
        <time>2017-08-22T08:35:04Z</time>
      </trkpt>
      <trkpt lat="44.26329" lon="0.95802">
        <ele>236.62</ele>
        <time>2017-08-22T08:35:09Z</time>
      </trkpt>
      <trkpt lat="44.26327" lon="0.958">
        <ele>234.92</ele>
        <time>2017-08-22T08:35:13Z</time>
      </trkpt>
      <trkpt lat="44.26327" lon="0.95806">
        <ele>234.011</ele>
        <time>2017-08-22T08:35:18Z</time>
      </trkpt>
      <trkpt lat="44.26329" lon="0.95814">
        <ele>234.092</ele>
        <time>2017-08-22T08:35:21Z</time>
      </trkpt>
      <trkpt lat="44.26339" lon="0.95828">
        <ele>238.803</ele>
        <time>2017-08-22T08:35:27Z</time>
      </trkpt>
      <trkpt lat="44.26352" lon="0.95835">
        <ele>242.653</ele>
        <time>2017-08-22T08:35:33Z</time>
      </trkpt>
      <trkpt lat="44.26358" lon="0.95832">
        <ele>242.802</ele>
        <time>2017-08-22T08:35:37Z</time>
      </trkpt>
      <trkpt lat="44.26363" lon="0.9582">
        <ele>238.72</ele>
        <time>2017-08-22T08:35:41Z</time>
      </trkpt>
      <trkpt lat="44.2636" lon="0.95809">
        <ele>237.14</ele>
        <time>2017-08-22T08:35:45Z</time>
      </trkpt>
      <trkpt lat="44.26346" lon="0.95795">
        <ele>235.812</ele>
        <time>2017-08-22T08:35:51Z</time>
      </trkpt>
      <trkpt lat="44.26334" lon="0.95795">
        <ele>236.892</ele>
        <time>2017-08-22T08:35:57Z</time>
      </trkpt>
      <trkpt lat="44.26325" lon="0.95795">
        <ele>235.091</ele>
        <time>2017-08-22T08:36:03Z</time>
      </trkpt>
      <trkpt lat="44.26317" lon="0.95782">
        <ele>229.86</ele>
        <time>2017-08-22T08:36:09Z</time>
      </trkpt>
      <trkpt lat="44.26308" lon="0.95758">
        <ele>226.589</ele>
        <time>2017-08-22T08:36:16Z</time>
      </trkpt>
      <trkpt lat="44.26304" lon="0.95751">
        <ele>225.45</ele>
        <time>2017-08-22T08:36:19Z</time>
      </trkpt>
      <trkpt lat="44.26295" lon="0.95749">
        <ele>226.142</ele>
        <time>2017-08-22T08:36:26Z</time>
      </trkpt>
      <trkpt lat="44.26294" lon="0.95748">
        <ele>226.631</ele>
        <time>2017-08-22T08:36:28Z</time>
      </trkpt>
      <trkpt lat="44.26292" lon="0.95739">
        <ele>224.34</ele>
        <time>2017-08-22T08:36:33Z</time>
      </trkpt>
      <trkpt lat="44.26291" lon="0.95718">
        <ele>224.05</ele>
        <time>2017-08-22T08:36:39Z</time>
      </trkpt>
      <trkpt lat="44.26282" lon="0.95693">
        <ele>223.56</ele>
        <time>2017-08-22T08:36:44Z</time>
      </trkpt>
      <trkpt lat="44.2628" lon="0.95687">
        <ele>223.41</ele>
        <time>2017-08-22T08:36:45Z</time>
      </trkpt>
      <trkpt lat="44.26268" lon="0.95661">
        <ele>221.879</ele>
        <time>2017-08-22T08:36:49Z</time>
      </trkpt>
      <trkpt lat="44.2624" lon="0.95622">
        <ele>222.58</ele>
        <time>2017-08-22T08:36:55Z</time>
      </trkpt>
      <trkpt lat="44.26202" lon="0.95583">
        <ele>221.489</ele>
        <time>2017-08-22T08:37:01Z</time>
      </trkpt>
      <trkpt lat="44.26145" lon="0.95533">
        <ele>217.399</ele>
        <time>2017-08-22T08:37:09Z</time>
      </trkpt>
      <trkpt lat="44.26117" lon="0.95499">
        <ele>216.161</ele>
        <time>2017-08-22T08:37:14Z</time>
      </trkpt>
      <trkpt lat="44.26094" lon="0.95468">
        <ele>215.751</ele>
        <time>2017-08-22T08:37:20Z</time>
      </trkpt>
      <trkpt lat="44.26078" lon="0.95445">
        <ele>217.593</ele>
        <time>2017-08-22T08:37:26Z</time>
      </trkpt>
      <trkpt lat="44.26061" lon="0.95418">
        <ele>220.111</ele>
        <time>2017-08-22T08:37:35Z</time>
      </trkpt>
      <trkpt lat="44.26051" lon="0.95403">
        <ele>220.901</ele>
        <time>2017-08-22T08:37:41Z</time>
      </trkpt>
      <trkpt lat="44.26041" lon="0.95386">
        <ele>221.811</ele>
        <time>2017-08-22T08:37:48Z</time>
      </trkpt>
      <trkpt lat="44.26029" lon="0.95364">
        <ele>223.021</ele>
        <time>2017-08-22T08:37:56Z</time>
      </trkpt>
      <trkpt lat="44.26018" lon="0.95343">
        <ele>225.371</ele>
        <time>2017-08-22T08:38:04Z</time>
      </trkpt>
      <trkpt lat="44.26007" lon="0.95317">
        <ele>229.782</ele>
        <time>2017-08-22T08:38:14Z</time>
      </trkpt>
      <trkpt lat="44.26" lon="0.95297">
        <ele>231.62</ele>
        <time>2017-08-22T08:38:23Z</time>
      </trkpt>
      <trkpt lat="44.25992" lon="0.95275">
        <ele>228.545</ele>
        <time>2017-08-22T08:38:34Z</time>
      </trkpt>
      <trkpt lat="44.25988" lon="0.95263">
        <ele>227.568</ele>
        <time>2017-08-22T08:38:40Z</time>
      </trkpt>
      <trkpt lat="44.25979" lon="0.95238">
        <ele>225.249</ele>
        <time>2017-08-22T08:38:51Z</time>
      </trkpt>
      <trkpt lat="44.2597" lon="0.95211">
        <ele>223.248</ele>
        <time>2017-08-22T08:39:03Z</time>
      </trkpt>
      <trkpt lat="44.25963" lon="0.95189">
        <ele>222.139</ele>
        <time>2017-08-22T08:39:13Z</time>
      </trkpt>
      <trkpt lat="44.25962" lon="0.95187">
        <ele>222.058</ele>
        <time>2017-08-22T08:39:14Z</time>
      </trkpt>
      <trkpt lat="44.25958" lon="0.95175">
        <ele>221.768</ele>
        <time>2017-08-22T08:39:22Z</time>
      </trkpt>
      <trkpt lat="44.25952" lon="0.95157">
        <ele>221.268</ele>
        <time>2017-08-22T08:39:32Z</time>
      </trkpt>
      <trkpt lat="44.25944" lon="0.95135">
        <ele>220.848</ele>
        <time>2017-08-22T08:39:44Z</time>
      </trkpt>
      <trkpt lat="44.25937" lon="0.95114">
        <ele>220.548</ele>
        <time>2017-08-22T08:39:55Z</time>
      </trkpt>
      <trkpt lat="44.25931" lon="0.95097">
        <ele>220.498</ele>
        <time>2017-08-22T08:40:01Z</time>
      </trkpt>
      <trkpt lat="44.25913" lon="0.95046">
        <ele>220.208</ele>
        <time>2017-08-22T08:40:14Z</time>
      </trkpt>
      <trkpt lat="44.259" lon="0.95007">
        <ele>219.928</ele>
        <time>2017-08-22T08:40:22Z</time>
      </trkpt>
      <trkpt lat="44.25884" lon="0.94963">
        <ele>219.787</ele>
        <time>2017-08-22T08:40:31Z</time>
      </trkpt>
      <trkpt lat="44.25864" lon="0.94905">
        <ele>219.617</ele>
        <time>2017-08-22T08:40:43Z</time>
      </trkpt>
      <trkpt lat="44.25843" lon="0.94853">
        <ele>221.208</ele>
        <time>2017-08-22T08:40:54Z</time>
      </trkpt>
      <trkpt lat="44.25824" lon="0.94821">
        <ele>223.288</ele>
        <time>2017-08-22T08:41:03Z</time>
      </trkpt>
      <trkpt lat="44.25816" lon="0.94801">
        <ele>224.508</ele>
        <time>2017-08-22T08:41:09Z</time>
      </trkpt>
      <trkpt lat="44.25819" lon="0.94773">
        <ele>225.447</ele>
        <time>2017-08-22T08:41:17Z</time>
      </trkpt>
      <trkpt lat="44.25824" lon="0.94742">
        <ele>226.037</ele>
        <time>2017-08-22T08:41:26Z</time>
      </trkpt>
      <trkpt lat="44.25832" lon="0.94703">
        <ele>228.287</ele>
        <time>2017-08-22T08:41:39Z</time>
      </trkpt>
      <trkpt lat="44.25837" lon="0.94674">
        <ele>229.497</ele>
        <time>2017-08-22T08:41:48Z</time>
      </trkpt>
      <trkpt lat="44.25846" lon="0.94627">
        <ele>230.627</ele>
        <time>2017-08-22T08:42:00Z</time>
      </trkpt>
      <trkpt lat="44.25855" lon="0.94577">
        <ele>231.757</ele>
        <time>2017-08-22T08:42:12Z</time>
      </trkpt>
      <trkpt lat="44.25862" lon="0.94539">
        <ele>232.237</ele>
        <time>2017-08-22T08:42:21Z</time>
      </trkpt>
      <trkpt lat="44.25866" lon="0.94514">
        <ele>232.507</ele>
        <time>2017-08-22T08:42:27Z</time>
      </trkpt>
      <trkpt lat="44.25874" lon="0.94467">
        <ele>233.366</ele>
        <time>2017-08-22T08:42:39Z</time>
      </trkpt>
      <trkpt lat="44.25878" lon="0.94443">
        <ele>233.666</ele>
        <time>2017-08-22T08:42:45Z</time>
      </trkpt>
      <trkpt lat="44.25885" lon="0.94401">
        <ele>234.427</ele>
        <time>2017-08-22T08:42:56Z</time>
      </trkpt>
      <trkpt lat="44.25893" lon="0.94358">
        <ele>234.957</ele>
        <time>2017-08-22T08:43:07Z</time>
      </trkpt>
      <trkpt lat="44.25903" lon="0.94315">
        <ele>235.877</ele>
        <time>2017-08-22T08:43:18Z</time>
      </trkpt>
      <trkpt lat="44.25911" lon="0.94283">
        <ele>235.956</ele>
        <time>2017-08-22T08:43:26Z</time>
      </trkpt>
      <trkpt lat="44.25925" lon="0.9424">
        <ele>235.086</ele>
        <time>2017-08-22T08:43:37Z</time>
      </trkpt>
      <trkpt lat="44.25937" lon="0.94211">
        <ele>234.596</ele>
        <time>2017-08-22T08:43:43Z</time>
      </trkpt>
      <trkpt lat="44.25953" lon="0.94169">
        <ele>233.965</ele>
        <time>2017-08-22T08:43:49Z</time>
      </trkpt>
      <trkpt lat="44.25987" lon="0.94085">
        <ele>232.185</ele>
        <time>2017-08-22T08:44:00Z</time>
      </trkpt>
      <trkpt lat="44.26011" lon="0.94045">
        <ele>231.495</ele>
        <time>2017-08-22T08:44:06Z</time>
      </trkpt>
      <trkpt lat="44.26039" lon="0.94019">
        <ele>231.036</ele>
        <time>2017-08-22T08:44:11Z</time>
      </trkpt>
      <trkpt lat="44.26084" lon="0.93996">
        <ele>230.976</ele>
        <time>2017-08-22T08:44:18Z</time>
      </trkpt>
      <trkpt lat="44.26177" lon="0.93954">
        <ele>230.406</ele>
        <time>2017-08-22T08:44:32Z</time>
      </trkpt>
      <trkpt lat="44.26239" lon="0.93926">
        <ele>230.237</ele>
        <time>2017-08-22T08:44:42Z</time>
      </trkpt>
      <trkpt lat="44.26285" lon="0.93903">
        <ele>230.477</ele>
        <time>2017-08-22T08:44:50Z</time>
      </trkpt>
      <trkpt lat="44.26322" lon="0.93875">
        <ele>230.717</ele>
        <time>2017-08-22T08:44:57Z</time>
      </trkpt>
      <trkpt lat="44.26353" lon="0.93835">
        <ele>230.997</ele>
        <time>2017-08-22T08:45:04Z</time>
      </trkpt>
      <trkpt lat="44.2639" lon="0.93775">
        <ele>231.397</ele>
        <time>2017-08-22T08:45:13Z</time>
      </trkpt>
      <trkpt lat="44.2642" lon="0.93712">
        <ele>230.606</ele>
        <time>2017-08-22T08:45:21Z</time>
      </trkpt>
      <trkpt lat="44.26438" lon="0.93651">
        <ele>230.016</ele>
        <time>2017-08-22T08:45:28Z</time>
      </trkpt>
      <trkpt lat="44.26454" lon="0.93555">
        <ele>227.906</ele>
        <time>2017-08-22T08:45:38Z</time>
      </trkpt>
      <trkpt lat="44.26474" lon="0.93434">
        <ele>226.186</ele>
        <time>2017-08-22T08:45:50Z</time>
      </trkpt>
      <trkpt lat="44.26495" lon="0.93308">
        <ele>224.617</ele>
        <time>2017-08-22T08:46:02Z</time>
      </trkpt>
      <trkpt lat="44.26518" lon="0.93185">
        <ele>223.797</ele>
        <time>2017-08-22T08:46:14Z</time>
      </trkpt>
      <trkpt lat="44.26545" lon="0.9307">
        <ele>224.197</ele>
        <time>2017-08-22T08:46:26Z</time>
      </trkpt>
      <trkpt lat="44.26564" lon="0.92993">
        <ele>224.817</ele>
        <time>2017-08-22T08:46:35Z</time>
      </trkpt>
      <trkpt lat="44.26579" lon="0.92932">
        <ele>225.317</ele>
        <time>2017-08-22T08:46:43Z</time>
      </trkpt>
      <trkpt lat="44.266" lon="0.92844">
        <ele>225.336</ele>
        <time>2017-08-22T08:46:55Z</time>
      </trkpt>
      <trkpt lat="44.26614" lon="0.92787">
        <ele>224.576</ele>
        <time>2017-08-22T08:47:03Z</time>
      </trkpt>
      <trkpt lat="44.26616" lon="0.9278">
        <ele>224.496</ele>
        <time>2017-08-22T08:47:04Z</time>
      </trkpt>
      <trkpt lat="44.2661" lon="0.92756">
        <ele>224.256</ele>
        <time>2017-08-22T08:47:08Z</time>
      </trkpt>
      <trkpt lat="44.26594" lon="0.92764">
        <ele>224.286</ele>
        <time>2017-08-22T08:47:11Z</time>
      </trkpt>
      <trkpt lat="44.26589" lon="0.92768">
        <ele>224.306</ele>
        <time>2017-08-22T08:47:12Z</time>
      </trkpt>
      <trkpt lat="44.26544" lon="0.92801">
        <ele>224.486</ele>
        <time>2017-08-22T08:47:21Z</time>
      </trkpt>
      <trkpt lat="44.2653" lon="0.92808">
        <ele>224.516</ele>
        <time>2017-08-22T08:47:24Z</time>
      </trkpt>
      <trkpt lat="44.26495" lon="0.9281">
        <ele>224.557</ele>
        <time>2017-08-22T08:47:32Z</time>
      </trkpt>
      <trkpt lat="44.26458" lon="0.928">
        <ele>224.936</ele>
        <time>2017-08-22T08:47:41Z</time>
      </trkpt>
      <trkpt lat="44.26428" lon="0.92792">
        <ele>225.076</ele>
        <time>2017-08-22T08:47:49Z</time>
      </trkpt>
      <trkpt lat="44.26396" lon="0.92784">
        <ele>224.706</ele>
        <time>2017-08-22T08:47:58Z</time>
      </trkpt>
      <trkpt lat="44.26353" lon="0.92772">
        <ele>224.095</ele>
        <time>2017-08-22T08:48:09Z</time>
      </trkpt>
      <trkpt lat="44.26306" lon="0.92759">
        <ele>222.815</ele>
        <time>2017-08-22T08:48:20Z</time>
      </trkpt>
      <trkpt lat="44.26254" lon="0.92745">
        <ele>221.585</ele>
        <time>2017-08-22T08:48:31Z</time>
      </trkpt>
      <trkpt lat="44.26213" lon="0.92737">
        <ele>222.125</ele>
        <time>2017-08-22T08:48:40Z</time>
      </trkpt>
      <trkpt lat="44.26182" lon="0.92734">
        <ele>222.555</ele>
        <time>2017-08-22T08:48:47Z</time>
      </trkpt>
      <trkpt lat="44.26152" lon="0.92733">
        <ele>223.144</ele>
        <time>2017-08-22T08:48:54Z</time>
      </trkpt>
      <trkpt lat="44.2612" lon="0.92736">
        <ele>222.944</ele>
        <time>2017-08-22T08:49:02Z</time>
      </trkpt>
      <trkpt lat="44.26087" lon="0.92741">
        <ele>222.754</ele>
        <time>2017-08-22T08:49:10Z</time>
      </trkpt>
      <trkpt lat="44.26032" lon="0.9275">
        <ele>222.594</ele>
        <time>2017-08-22T08:49:22Z</time>
      </trkpt>
      <trkpt lat="44.26022" lon="0.92751">
        <ele>222.394</ele>
        <time>2017-08-22T08:49:24Z</time>
      </trkpt>
      <trkpt lat="44.26006" lon="0.92735">
        <ele>221.403</ele>
        <time>2017-08-22T08:49:28Z</time>
      </trkpt>
      <trkpt lat="44.26007" lon="0.9272">
        <ele>220.783</ele>
        <time>2017-08-22T08:49:30Z</time>
      </trkpt>
      <trkpt lat="44.26011" lon="0.92653">
        <ele>219.202</ele>
        <time>2017-08-22T08:49:38Z</time>
      </trkpt>
      <trkpt lat="44.26" lon="0.92603">
        <ele>218.833</ele>
        <time>2017-08-22T08:49:44Z</time>
      </trkpt>
      <trkpt lat="44.25983" lon="0.9256">
        <ele>219.044</ele>
        <time>2017-08-22T08:49:51Z</time>
      </trkpt>
      <trkpt lat="44.25966" lon="0.9251">
        <ele>218.843</ele>
        <time>2017-08-22T08:49:59Z</time>
      </trkpt>
      <trkpt lat="44.25949" lon="0.92455">
        <ele>218.804</ele>
        <time>2017-08-22T08:50:07Z</time>
      </trkpt>
      <trkpt lat="44.25932" lon="0.92396">
        <ele>219.494</ele>
        <time>2017-08-22T08:50:16Z</time>
      </trkpt>
      <trkpt lat="44.25919" lon="0.92354">
        <ele>220.084</ele>
        <time>2017-08-22T08:50:24Z</time>
      </trkpt>
      <trkpt lat="44.259" lon="0.92324">
        <ele>221.034</ele>
        <time>2017-08-22T08:50:32Z</time>
      </trkpt>
      <trkpt lat="44.25877" lon="0.923">
        <ele>221.722</ele>
        <time>2017-08-22T08:50:42Z</time>
      </trkpt>
      <trkpt lat="44.25852" lon="0.92277">
        <ele>221.102</ele>
        <time>2017-08-22T08:50:52Z</time>
      </trkpt>
      <trkpt lat="44.25822" lon="0.92246">
        <ele>220.262</ele>
        <time>2017-08-22T08:51:04Z</time>
      </trkpt>
      <trkpt lat="44.25811" lon="0.92221">
        <ele>220.172</ele>
        <time>2017-08-22T08:51:10Z</time>
      </trkpt>
      <trkpt lat="44.25804" lon="0.92182">
        <ele>220.022</ele>
        <time>2017-08-22T08:51:17Z</time>
      </trkpt>
      <trkpt lat="44.25792" lon="0.9212">
        <ele>220.022</ele>
        <time>2017-08-22T08:51:26Z</time>
      </trkpt>
      <trkpt lat="44.25779" lon="0.92054">
        <ele>220.182</ele>
        <time>2017-08-22T08:51:34Z</time>
      </trkpt>
      <trkpt lat="44.25757" lon="0.92009">
        <ele>220.171</ele>
        <time>2017-08-22T08:51:41Z</time>
      </trkpt>
      <trkpt lat="44.25734" lon="0.91983">
        <ele>220.121</ele>
        <time>2017-08-22T08:51:47Z</time>
      </trkpt>
      <trkpt lat="44.25717" lon="0.91975">
        <ele>219.851</ele>
        <time>2017-08-22T08:51:51Z</time>
      </trkpt>
      <trkpt lat="44.25673" lon="0.91964">
        <ele>218.89</ele>
        <time>2017-08-22T08:52:00Z</time>
      </trkpt>
      <trkpt lat="44.25642" lon="0.9195">
        <ele>218.671</ele>
        <time>2017-08-22T08:52:07Z</time>
      </trkpt>
      <trkpt lat="44.25625" lon="0.91925">
        <ele>218.641</ele>
        <time>2017-08-22T08:52:13Z</time>
      </trkpt>
      <trkpt lat="44.25626" lon="0.91902">
        <ele>218.851</ele>
        <time>2017-08-22T08:52:17Z</time>
      </trkpt>
      <trkpt lat="44.25629" lon="0.91869">
        <ele>218.741</ele>
        <time>2017-08-22T08:52:23Z</time>
      </trkpt>
      <trkpt lat="44.25624" lon="0.91849">
        <ele>218.911</ele>
        <time>2017-08-22T08:52:27Z</time>
      </trkpt>
      <trkpt lat="44.25601" lon="0.9182">
        <ele>218.971</ele>
        <time>2017-08-22T08:52:35Z</time>
      </trkpt>
      <trkpt lat="44.25571" lon="0.91789">
        <ele>219.43</ele>
        <time>2017-08-22T08:52:46Z</time>
      </trkpt>
      <trkpt lat="44.25551" lon="0.9177">
        <ele>219.77</ele>
        <time>2017-08-22T08:52:54Z</time>
      </trkpt>
      <trkpt lat="44.25532" lon="0.9175">
        <ele>220.3</ele>
        <time>2017-08-22T08:53:02Z</time>
      </trkpt>
      <trkpt lat="44.25515" lon="0.91735">
        <ele>220.92</ele>
        <time>2017-08-22T08:53:10Z</time>
      </trkpt>
      <trkpt lat="44.25497" lon="0.91717">
        <ele>221.03</ele>
        <time>2017-08-22T08:53:18Z</time>
      </trkpt>
      <trkpt lat="44.25483" lon="0.91704">
        <ele>220.379</ele>
        <time>2017-08-22T08:53:23Z</time>
      </trkpt>
      <trkpt lat="44.25473" lon="0.91676">
        <ele>219.179</ele>
        <time>2017-08-22T08:53:28Z</time>
      </trkpt>
      <trkpt lat="44.25474" lon="0.91654">
        <ele>218.339</ele>
        <time>2017-08-22T08:53:31Z</time>
      </trkpt>
      <trkpt lat="44.25489" lon="0.91577">
        <ele>215.828</ele>
        <time>2017-08-22T08:53:41Z</time>
      </trkpt>
      <trkpt lat="44.25494" lon="0.91554">
        <ele>215.478</ele>
        <time>2017-08-22T08:53:44Z</time>
      </trkpt>
      <trkpt lat="44.25498" lon="0.91539">
        <ele>215.128</ele>
        <time>2017-08-22T08:53:46Z</time>
      </trkpt>
      <trkpt lat="44.25513" lon="0.91517">
        <ele>214.949</ele>
        <time>2017-08-22T08:53:50Z</time>
      </trkpt>
      <trkpt lat="44.25531" lon="0.91503">
        <ele>215.239</ele>
        <time>2017-08-22T08:53:54Z</time>
      </trkpt>
      <trkpt lat="44.25577" lon="0.91477">
        <ele>215.428</ele>
        <time>2017-08-22T08:54:03Z</time>
      </trkpt>
      <trkpt lat="44.25593" lon="0.91453">
        <ele>214.287</ele>
        <time>2017-08-22T08:54:07Z</time>
      </trkpt>
      <trkpt lat="44.25595" lon="0.91423">
        <ele>212.757</ele>
        <time>2017-08-22T08:54:10Z</time>
      </trkpt>
      <trkpt lat="44.25589" lon="0.91402">
        <ele>211.505</ele>
        <time>2017-08-22T08:54:12Z</time>
      </trkpt>
      <trkpt lat="44.25557" lon="0.91321">
        <ele>209.308</ele>
        <time>2017-08-22T08:54:20Z</time>
      </trkpt>
      <trkpt lat="44.25537" lon="0.9127">
        <ele>209.75</ele>
        <time>2017-08-22T08:54:26Z</time>
      </trkpt>
      <trkpt lat="44.25513" lon="0.91214">
        <ele>210.8</ele>
        <time>2017-08-22T08:54:34Z</time>
      </trkpt>
      <trkpt lat="44.25495" lon="0.91185">
        <ele>211.439</ele>
        <time>2017-08-22T08:54:40Z</time>
      </trkpt>
      <trkpt lat="44.25483" lon="0.91175">
        <ele>213.531</ele>
        <time>2017-08-22T08:54:46Z</time>
      </trkpt>
      <trkpt lat="44.25474" lon="0.91166">
        <ele>214.859</ele>
        <time>2017-08-22T08:54:52Z</time>
      </trkpt>
      <trkpt lat="44.2546" lon="0.91154">
        <ele>215.939</ele>
        <time>2017-08-22T08:55:00Z</time>
      </trkpt>
      <trkpt lat="44.25448" lon="0.91141">
        <ele>217.249</ele>
        <time>2017-08-22T08:55:08Z</time>
      </trkpt>
      <trkpt lat="44.25446" lon="0.91138">
        <ele>217.459</ele>
        <time>2017-08-22T08:55:10Z</time>
      </trkpt>
      <trkpt lat="44.25433" lon="0.91127">
        <ele>218.068</ele>
        <time>2017-08-22T08:55:19Z</time>
      </trkpt>
      <trkpt lat="44.25417" lon="0.91111">
        <ele>218.018</ele>
        <time>2017-08-22T08:55:28Z</time>
      </trkpt>
      <trkpt lat="44.25398" lon="0.91092">
        <ele>217.588</ele>
        <time>2017-08-22T08:55:36Z</time>
      </trkpt>
      <trkpt lat="44.25367" lon="0.91061">
        <ele>217.038</ele>
        <time>2017-08-22T08:55:47Z</time>
      </trkpt>
      <trkpt lat="44.25337" lon="0.91028">
        <ele>216.948</ele>
        <time>2017-08-22T08:55:58Z</time>
      </trkpt>
      <trkpt lat="44.2531" lon="0.90997">
        <ele>216.868</ele>
        <time>2017-08-22T08:56:09Z</time>
      </trkpt>
      <trkpt lat="44.253" lon="0.90984">
        <ele>216.628</ele>
        <time>2017-08-22T08:56:15Z</time>
      </trkpt>
      <trkpt lat="44.25285" lon="0.90969">
        <ele>216.617</ele>
        <time>2017-08-22T08:56:25Z</time>
      </trkpt>
      <trkpt lat="44.25277" lon="0.90963">
        <ele>216.667</ele>
        <time>2017-08-22T08:56:30Z</time>
      </trkpt>
      <trkpt lat="44.25269" lon="0.90953">
        <ele>216.658</ele>
        <time>2017-08-22T08:56:38Z</time>
      </trkpt>
      <trkpt lat="44.25265" lon="0.90949">
        <ele>216.807</ele>
        <time>2017-08-22T08:56:46Z</time>
      </trkpt>
      <trkpt lat="44.25254" lon="0.90941">
        <ele>217.457</ele>
        <time>2017-08-22T08:56:53Z</time>
      </trkpt>
      <trkpt lat="44.25244" lon="0.90933">
        <ele>218.307</ele>
        <time>2017-08-22T08:57:00Z</time>
      </trkpt>
      <trkpt lat="44.25231" lon="0.90924">
        <ele>218.797</ele>
        <time>2017-08-22T08:57:08Z</time>
      </trkpt>
      <trkpt lat="44.25213" lon="0.90914">
        <ele>219.447</ele>
        <time>2017-08-22T08:57:18Z</time>
      </trkpt>
      <trkpt lat="44.25201" lon="0.90909">
        <ele>219.897</ele>
        <time>2017-08-22T08:57:25Z</time>
      </trkpt>
      <trkpt lat="44.25178" lon="0.90903">
        <ele>220.217</ele>
        <time>2017-08-22T08:57:36Z</time>
      </trkpt>
      <trkpt lat="44.25159" lon="0.90901">
        <ele>220.776</ele>
        <time>2017-08-22T08:57:45Z</time>
      </trkpt>
      <trkpt lat="44.25137" lon="0.90903">
        <ele>220.986</ele>
        <time>2017-08-22T08:57:55Z</time>
      </trkpt>
      <trkpt lat="44.25119" lon="0.90903">
        <ele>220.386</ele>
        <time>2017-08-22T08:58:02Z</time>
      </trkpt>
      <trkpt lat="44.25093" lon="0.90903">
        <ele>219.696</ele>
        <time>2017-08-22T08:58:10Z</time>
      </trkpt>
      <trkpt lat="44.25057" lon="0.90897">
        <ele>218.816</ele>
        <time>2017-08-22T08:58:21Z</time>
      </trkpt>
      <trkpt lat="44.25031" lon="0.90889">
        <ele>218.136</ele>
        <time>2017-08-22T08:58:30Z</time>
      </trkpt>
      <trkpt lat="44.25013" lon="0.90883">
        <ele>217.346</ele>
        <time>2017-08-22T08:58:36Z</time>
      </trkpt>
      <trkpt lat="44.25013" lon="0.90883">
        <ele>217.126</ele>
        <time>2017-08-22T08:58:42Z</time>
      </trkpt>
      <trkpt lat="44.25006" lon="0.90881">
        <ele>213.375</ele>
        <time>2017-08-22T09:00:08Z</time>
      </trkpt>
      <trkpt lat="44.24989" lon="0.90878">
        <ele>213.194</ele>
        <time>2017-08-22T09:00:13Z</time>
      </trkpt>
      <trkpt lat="44.24963" lon="0.90876">
        <ele>212.044</ele>
        <time>2017-08-22T09:00:18Z</time>
      </trkpt>
      <trkpt lat="44.24921" lon="0.90887">
        <ele>210.354</ele>
        <time>2017-08-22T09:00:25Z</time>
      </trkpt>
      <trkpt lat="44.24882" lon="0.90903">
        <ele>208.564</ele>
        <time>2017-08-22T09:00:31Z</time>
      </trkpt>
      <trkpt lat="44.24826" lon="0.90928">
        <ele>207.045</ele>
        <time>2017-08-22T09:00:40Z</time>
      </trkpt>
      <trkpt lat="44.2478" lon="0.90949">
        <ele>207.714</ele>
        <time>2017-08-22T09:00:48Z</time>
      </trkpt>
      <trkpt lat="44.24747" lon="0.90952">
        <ele>208.835</ele>
        <time>2017-08-22T09:00:54Z</time>
      </trkpt>
      <trkpt lat="44.24706" lon="0.90943">
        <ele>209.043</ele>
        <time>2017-08-22T09:01:02Z</time>
      </trkpt>
      <trkpt lat="44.24672" lon="0.9092">
        <ele>207.553</ele>
        <time>2017-08-22T09:01:08Z</time>
      </trkpt>
      <trkpt lat="44.2466" lon="0.90912">
        <ele>206.933</ele>
        <time>2017-08-22T09:01:10Z</time>
      </trkpt>
      <trkpt lat="44.24619" lon="0.90877">
        <ele>205.554</ele>
        <time>2017-08-22T09:01:19Z</time>
      </trkpt>
      <trkpt lat="44.24577" lon="0.90839">
        <ele>204.674</ele>
        <time>2017-08-22T09:01:28Z</time>
      </trkpt>
      <trkpt lat="44.24544" lon="0.90806">
        <ele>204.495</ele>
        <time>2017-08-22T09:01:36Z</time>
      </trkpt>
      <trkpt lat="44.2451" lon="0.90772">
        <ele>204.783</ele>
        <time>2017-08-22T09:01:46Z</time>
      </trkpt>
      <trkpt lat="44.24488" lon="0.90744">
        <ele>205.604</ele>
        <time>2017-08-22T09:01:55Z</time>
      </trkpt>
      <trkpt lat="44.24469" lon="0.90718">
        <ele>206.824</ele>
        <time>2017-08-22T09:02:04Z</time>
      </trkpt>
      <trkpt lat="44.24454" lon="0.90695">
        <ele>207.984</ele>
        <time>2017-08-22T09:02:14Z</time>
      </trkpt>
      <trkpt lat="44.24444" lon="0.90677">
        <ele>209.174</ele>
        <time>2017-08-22T09:02:24Z</time>
      </trkpt>
      <trkpt lat="44.2444" lon="0.90666">
        <ele>210.054</ele>
        <time>2017-08-22T09:02:33Z</time>
      </trkpt>
      <trkpt lat="44.24436" lon="0.90652">
        <ele>210.894</ele>
        <time>2017-08-22T09:02:41Z</time>
      </trkpt>
      <trkpt lat="44.24432" lon="0.90629">
        <ele>211.983</ele>
        <time>2017-08-22T09:02:51Z</time>
      </trkpt>
      <trkpt lat="44.24429" lon="0.90606">
        <ele>213.043</ele>
        <time>2017-08-22T09:03:00Z</time>
      </trkpt>
      <trkpt lat="44.24425" lon="0.90589">
        <ele>213.783</ele>
        <time>2017-08-22T09:03:07Z</time>
      </trkpt>
      <trkpt lat="44.24419" lon="0.90562">
        <ele>215.113</ele>
        <time>2017-08-22T09:03:18Z</time>
      </trkpt>
      <trkpt lat="44.24414" lon="0.90541">
        <ele>215.683</ele>
        <time>2017-08-22T09:03:27Z</time>
      </trkpt>
      <trkpt lat="44.24408" lon="0.9052">
        <ele>216.313</ele>
        <time>2017-08-22T09:03:36Z</time>
      </trkpt>
      <trkpt lat="44.24402" lon="0.90494">
        <ele>217.253</ele>
        <time>2017-08-22T09:03:47Z</time>
      </trkpt>
      <trkpt lat="44.24396" lon="0.90467">
        <ele>218.253</ele>
        <time>2017-08-22T09:03:59Z</time>
      </trkpt>
      <trkpt lat="44.2439" lon="0.90439">
        <ele>218.953</ele>
        <time>2017-08-22T09:04:11Z</time>
      </trkpt>
      <trkpt lat="44.24387" lon="0.9041">
        <ele>219.382</ele>
        <time>2017-08-22T09:04:22Z</time>
      </trkpt>
      <trkpt lat="44.24385" lon="0.9038">
        <ele>219.482</ele>
        <time>2017-08-22T09:04:31Z</time>
      </trkpt>
      <trkpt lat="44.24383" lon="0.90342">
        <ele>219.242</ele>
        <time>2017-08-22T09:04:40Z</time>
      </trkpt>
      <trkpt lat="44.24381" lon="0.90305">
        <ele>219.052</ele>
        <time>2017-08-22T09:04:47Z</time>
      </trkpt>
      <trkpt lat="44.24375" lon="0.90263">
        <ele>218.281</ele>
        <time>2017-08-22T09:04:54Z</time>
      </trkpt>
      <trkpt lat="44.24363" lon="0.90209">
        <ele>217.091</ele>
        <time>2017-08-22T09:05:01Z</time>
      </trkpt>
      <trkpt lat="44.24344" lon="0.90133">
        <ele>216.552</ele>
        <time>2017-08-22T09:05:10Z</time>
      </trkpt>
      <trkpt lat="44.2433" lon="0.90084">
        <ele>217.052</ele>
        <time>2017-08-22T09:05:17Z</time>
      </trkpt>
      <trkpt lat="44.24317" lon="0.90048">
        <ele>217.812</ele>
        <time>2017-08-22T09:05:24Z</time>
      </trkpt>
      <trkpt lat="44.24305" lon="0.90014">
        <ele>218.592</ele>
        <time>2017-08-22T09:05:33Z</time>
      </trkpt>
      <trkpt lat="44.24299" lon="0.89993">
        <ele>218.762</ele>
        <time>2017-08-22T09:05:40Z</time>
      </trkpt>
      <trkpt lat="44.24292" lon="0.89962">
        <ele>219.011</ele>
        <time>2017-08-22T09:05:50Z</time>
      </trkpt>
      <trkpt lat="44.24286" lon="0.89934">
        <ele>219.391</ele>
        <time>2017-08-22T09:05:59Z</time>
      </trkpt>
      <trkpt lat="44.2428" lon="0.8991">
        <ele>219.972</ele>
        <time>2017-08-22T09:06:04Z</time>
      </trkpt>
      <trkpt lat="44.24274" lon="0.89872">
        <ele>221.052</ele>
        <time>2017-08-22T09:06:11Z</time>
      </trkpt>
      <trkpt lat="44.2427" lon="0.89812">
        <ele>222.652</ele>
        <time>2017-08-22T09:06:21Z</time>
      </trkpt>
      <trkpt lat="44.24274" lon="0.89771">
        <ele>222.961</ele>
        <time>2017-08-22T09:06:28Z</time>
      </trkpt>
      <trkpt lat="44.24286" lon="0.89749">
        <ele>222.763</ele>
        <time>2017-08-22T09:06:33Z</time>
      </trkpt>
      <trkpt lat="44.24322" lon="0.89722">
        <ele>222.651</ele>
        <time>2017-08-22T09:06:42Z</time>
      </trkpt>
      <trkpt lat="44.24354" lon="0.89695">
        <ele>221.929</ele>
        <time>2017-08-22T09:06:49Z</time>
      </trkpt>
      <trkpt lat="44.2438" lon="0.89666">
        <ele>221.24</ele>
        <time>2017-08-22T09:06:54Z</time>
      </trkpt>
      <trkpt lat="44.24389" lon="0.89651">
        <ele>221.23</ele>
        <time>2017-08-22T09:06:56Z</time>
      </trkpt>
      <trkpt lat="44.24407" lon="0.89601">
        <ele>221.011</ele>
        <time>2017-08-22T09:07:02Z</time>
      </trkpt>
      <trkpt lat="44.24421" lon="0.89548">
        <ele>221.331</ele>
        <time>2017-08-22T09:07:09Z</time>
      </trkpt>
      <trkpt lat="44.24436" lon="0.89512">
        <ele>221.581</ele>
        <time>2017-08-22T09:07:15Z</time>
      </trkpt>
      <trkpt lat="44.24441" lon="0.89501">
        <ele>221.821</ele>
        <time>2017-08-22T09:07:17Z</time>
      </trkpt>
      <trkpt lat="44.24463" lon="0.8948">
        <ele>221.459</ele>
        <time>2017-08-22T09:07:23Z</time>
      </trkpt>
      <trkpt lat="44.24474" lon="0.89464">
        <ele>221.592</ele>
        <time>2017-08-22T09:07:27Z</time>
      </trkpt>
      <trkpt lat="44.24474" lon="0.89462">
        <ele>222.131</ele>
        <time>2017-08-22T09:07:30Z</time>
      </trkpt>
      <trkpt lat="44.24475" lon="0.89463">
        <ele>223.86</ele>
        <time>2017-08-22T09:08:05Z</time>
      </trkpt>
      <trkpt lat="44.24477" lon="0.89457">
        <ele>223.851</ele>
        <time>2017-08-22T09:08:10Z</time>
      </trkpt>
      <trkpt lat="44.24477" lon="0.89458">
        <ele>223.86</ele>
        <time>2017-08-22T09:08:14Z</time>
      </trkpt>
      <trkpt lat="44.24475" lon="0.89463">
        <ele>223.73</ele>
        <time>2017-08-22T09:08:21Z</time>
      </trkpt>
      <trkpt lat="44.24475" lon="0.89463">
        <ele>223.44</ele>
        <time>2017-08-22T09:08:37Z</time>
      </trkpt>
      <trkpt lat="44.24479" lon="0.89453">
        <ele>221.639</ele>
        <time>2017-08-22T09:08:43Z</time>
      </trkpt>
      <trkpt lat="44.24477" lon="0.89449">
        <ele>220.74</ele>
        <time>2017-08-22T09:08:48Z</time>
      </trkpt>
      <trkpt lat="44.24477" lon="0.89448">
        <ele>220.56</ele>
        <time>2017-08-22T09:08:49Z</time>
      </trkpt>
      <trkpt lat="44.24472" lon="0.89442">
        <ele>220.29</ele>
        <time>2017-08-22T09:08:54Z</time>
      </trkpt>
      <trkpt lat="44.24466" lon="0.89435">
        <ele>219.77</ele>
        <time>2017-08-22T09:09:00Z</time>
      </trkpt>
      <trkpt lat="44.24461" lon="0.89431">
        <ele>219.31</ele>
        <time>2017-08-22T09:09:05Z</time>
      </trkpt>
      <trkpt lat="44.24458" lon="0.89434">
        <ele>219.51</ele>
        <time>2017-08-22T09:09:08Z</time>
      </trkpt>
      <trkpt lat="44.24452" lon="0.89448">
        <ele>221.331</ele>
        <time>2017-08-22T09:09:17Z</time>
      </trkpt>
      <trkpt lat="44.24449" lon="0.89454">
        <ele>223.211</ele>
        <time>2017-08-22T09:09:39Z</time>
      </trkpt>
      <trkpt lat="44.24447" lon="0.89462">
        <ele>223.941</ele>
        <time>2017-08-22T09:09:45Z</time>
      </trkpt>
      <trkpt lat="44.24446" lon="0.89467">
        <ele>226.121</ele>
        <time>2017-08-22T09:10:17Z</time>
      </trkpt>
      <trkpt lat="44.24443" lon="0.89473">
        <ele>226.78</ele>
        <time>2017-08-22T09:10:56Z</time>
      </trkpt>
      <trkpt lat="44.24446" lon="0.8948">
        <ele>226.47</ele>
        <time>2017-08-22T09:11:01Z</time>
      </trkpt>
      <trkpt lat="44.24451" lon="0.89488">
        <ele>226.01</ele>
        <time>2017-08-22T09:11:06Z</time>
      </trkpt>
      <trkpt lat="44.24448" lon="0.89494">
        <ele>225.98</ele>
        <time>2017-08-22T09:11:13Z</time>
      </trkpt>
      <trkpt lat="44.24446" lon="0.89496">
        <ele>225.91</ele>
        <time>2017-08-22T09:11:17Z</time>
      </trkpt>
      <trkpt lat="44.24442" lon="0.89501">
        <ele>225.68</ele>
        <time>2017-08-22T09:11:23Z</time>
      </trkpt>
      <trkpt lat="44.24434" lon="0.89513">
        <ele>225.62</ele>
        <time>2017-08-22T09:11:28Z</time>
      </trkpt>
      <trkpt lat="44.24422" lon="0.89542">
        <ele>225.48</ele>
        <time>2017-08-22T09:11:36Z</time>
      </trkpt>
      <trkpt lat="44.24412" lon="0.89577">
        <ele>225.04</ele>
        <time>2017-08-22T09:11:44Z</time>
      </trkpt>
      <trkpt lat="44.244" lon="0.89622">
        <ele>224.35</ele>
        <time>2017-08-22T09:11:53Z</time>
      </trkpt>
      <trkpt lat="44.24382" lon="0.89664">
        <ele>223.991</ele>
        <time>2017-08-22T09:12:02Z</time>
      </trkpt>
      <trkpt lat="44.24363" lon="0.8969">
        <ele>224.041</ele>
        <time>2017-08-22T09:12:10Z</time>
      </trkpt>
      <trkpt lat="44.24345" lon="0.89707">
        <ele>224.721</ele>
        <time>2017-08-22T09:12:18Z</time>
      </trkpt>
      <trkpt lat="44.2432" lon="0.89727">
        <ele>224.34</ele>
        <time>2017-08-22T09:12:28Z</time>
      </trkpt>
      <trkpt lat="44.24287" lon="0.89755">
        <ele>223.14</ele>
        <time>2017-08-22T09:12:40Z</time>
      </trkpt>
      <trkpt lat="44.2428" lon="0.89746">
        <ele>222.7</ele>
        <time>2017-08-22T09:12:43Z</time>
      </trkpt>
      <trkpt lat="44.2428" lon="0.89741">
        <ele>222.34</ele>
        <time>2017-08-22T09:12:44Z</time>
      </trkpt>
      <trkpt lat="44.24285" lon="0.89699">
        <ele>220.169</ele>
        <time>2017-08-22T09:12:52Z</time>
      </trkpt>
      <trkpt lat="44.24281" lon="0.89666">
        <ele>218.939</ele>
        <time>2017-08-22T09:12:57Z</time>
      </trkpt>
      <trkpt lat="44.24268" lon="0.8961">
        <ele>217.459</ele>
        <time>2017-08-22T09:13:05Z</time>
      </trkpt>
      <trkpt lat="44.24255" lon="0.89553">
        <ele>215.129</ele>
        <time>2017-08-22T09:13:12Z</time>
      </trkpt>
      <trkpt lat="44.24241" lon="0.89492">
        <ele>214.559</ele>
        <time>2017-08-22T09:13:19Z</time>
      </trkpt>
      <trkpt lat="44.24218" lon="0.89455">
        <ele>213.488</ele>
        <time>2017-08-22T09:13:24Z</time>
      </trkpt>
      <trkpt lat="44.24199" lon="0.89439">
        <ele>212.738</ele>
        <time>2017-08-22T09:13:27Z</time>
      </trkpt>
      <trkpt lat="44.24151" lon="0.8942">
        <ele>211.939</ele>
        <time>2017-08-22T09:13:34Z</time>
      </trkpt>
      <trkpt lat="44.24098" lon="0.89417">
        <ele>211.64</ele>
        <time>2017-08-22T09:13:41Z</time>
      </trkpt>
      <trkpt lat="44.24083" lon="0.89413">
        <ele>211.67</ele>
        <time>2017-08-22T09:13:43Z</time>
      </trkpt>
      <trkpt lat="44.2405" lon="0.89391">
        <ele>212.231</ele>
        <time>2017-08-22T09:13:49Z</time>
      </trkpt>
      <trkpt lat="44.24026" lon="0.89372">
        <ele>213.019</ele>
        <time>2017-08-22T09:13:55Z</time>
      </trkpt>
      <trkpt lat="44.24006" lon="0.89345">
        <ele>213.619</ele>
        <time>2017-08-22T09:14:03Z</time>
      </trkpt>
      <trkpt lat="44.23992" lon="0.89318">
        <ele>214.119</ele>
        <time>2017-08-22T09:14:11Z</time>
      </trkpt>
      <trkpt lat="44.23977" lon="0.89294">
        <ele>214.488</ele>
        <time>2017-08-22T09:14:21Z</time>
      </trkpt>
      <trkpt lat="44.23965" lon="0.8928">
        <ele>214.127</ele>
        <time>2017-08-22T09:14:29Z</time>
      </trkpt>
      <trkpt lat="44.2395" lon="0.89266">
        <ele>212.876</ele>
        <time>2017-08-22T09:14:34Z</time>
      </trkpt>
      <trkpt lat="44.23926" lon="0.89243">
        <ele>210.395</ele>
        <time>2017-08-22T09:14:39Z</time>
      </trkpt>
      <trkpt lat="44.23894" lon="0.89211">
        <ele>206.974</ele>
        <time>2017-08-22T09:14:44Z</time>
      </trkpt>
      <trkpt lat="44.23849" lon="0.89162">
        <ele>203.435</ele>
        <time>2017-08-22T09:14:50Z</time>
      </trkpt>
      <trkpt lat="44.23784" lon="0.89085">
        <ele>200.856</ele>
        <time>2017-08-22T09:14:59Z</time>
      </trkpt>
      <trkpt lat="44.23742" lon="0.89032">
        <ele>200.377</ele>
        <time>2017-08-22T09:15:06Z</time>
      </trkpt>
      <trkpt lat="44.23713" lon="0.88994">
        <ele>201.789</ele>
        <time>2017-08-22T09:15:12Z</time>
      </trkpt>
      <trkpt lat="44.23695" lon="0.8897">
        <ele>202.547</ele>
        <time>2017-08-22T09:15:18Z</time>
      </trkpt>
      <trkpt lat="44.23675" lon="0.8894">
        <ele>201.275</ele>
        <time>2017-08-22T09:15:25Z</time>
      </trkpt>
      <trkpt lat="44.23655" lon="0.8891">
        <ele>199.284</ele>
        <time>2017-08-22T09:15:30Z</time>
      </trkpt>
      <trkpt lat="44.2362" lon="0.88858">
        <ele>198.057</ele>
        <time>2017-08-22T09:15:37Z</time>
      </trkpt>
      <trkpt lat="44.23587" lon="0.88813">
        <ele>199.518</ele>
        <time>2017-08-22T09:15:44Z</time>
      </trkpt>
      <trkpt lat="44.23576" lon="0.88796">
        <ele>200.729</ele>
        <time>2017-08-22T09:15:48Z</time>
      </trkpt>
      <trkpt lat="44.23568" lon="0.88786">
        <ele>201.918</ele>
        <time>2017-08-22T09:15:53Z</time>
      </trkpt>
      <trkpt lat="44.23555" lon="0.88767">
        <ele>203.847</ele>
        <time>2017-08-22T09:15:59Z</time>
      </trkpt>
      <trkpt lat="44.23536" lon="0.88735">
        <ele>206.157</ele>
        <time>2017-08-22T09:16:07Z</time>
      </trkpt>
      <trkpt lat="44.23532" lon="0.88726">
        <ele>206.697</ele>
        <time>2017-08-22T09:16:09Z</time>
      </trkpt>
      <trkpt lat="44.23507" lon="0.88679">
        <ele>209.497</ele>
        <time>2017-08-22T09:16:19Z</time>
      </trkpt>
      <trkpt lat="44.23483" lon="0.88637">
        <ele>211.216</ele>
        <time>2017-08-22T09:16:28Z</time>
      </trkpt>
      <trkpt lat="44.23453" lon="0.88585">
        <ele>210.274</ele>
        <time>2017-08-22T09:16:38Z</time>
      </trkpt>
      <trkpt lat="44.23435" lon="0.88536">
        <ele>209.405</ele>
        <time>2017-08-22T09:16:45Z</time>
      </trkpt>
      <trkpt lat="44.2341" lon="0.88468">
        <ele>208.815</ele>
        <time>2017-08-22T09:16:54Z</time>
      </trkpt>
      <trkpt lat="44.23387" lon="0.88423">
        <ele>208.984</ele>
        <time>2017-08-22T09:17:01Z</time>
      </trkpt>
      <trkpt lat="44.23358" lon="0.88363">
        <ele>208.453</ele>
        <time>2017-08-22T09:17:10Z</time>
      </trkpt>
      <trkpt lat="44.23322" lon="0.88285">
        <ele>207.043</ele>
        <time>2017-08-22T09:17:21Z</time>
      </trkpt>
      <trkpt lat="44.23296" lon="0.88247">
        <ele>206.563</ele>
        <time>2017-08-22T09:17:27Z</time>
      </trkpt>
      <trkpt lat="44.23286" lon="0.88238">
        <ele>206.413</ele>
        <time>2017-08-22T09:17:29Z</time>
      </trkpt>
      <trkpt lat="44.23251" lon="0.88226">
        <ele>206.514</ele>
        <time>2017-08-22T09:17:35Z</time>
      </trkpt>
      <trkpt lat="44.23197" lon="0.88239">
        <ele>206.133</ele>
        <time>2017-08-22T09:17:45Z</time>
      </trkpt>
      <trkpt lat="44.23159" lon="0.88248">
        <ele>205.293</ele>
        <time>2017-08-22T09:17:52Z</time>
      </trkpt>
      <trkpt lat="44.23115" lon="0.88252">
        <ele>204.722</ele>
        <time>2017-08-22T09:18:00Z</time>
      </trkpt>
      <trkpt lat="44.23062" lon="0.88254">
        <ele>204.732</ele>
        <time>2017-08-22T09:18:10Z</time>
      </trkpt>
      <trkpt lat="44.23014" lon="0.88254">
        <ele>205.603</ele>
        <time>2017-08-22T09:18:20Z</time>
      </trkpt>
      <trkpt lat="44.22979" lon="0.88256">
        <ele>206.753</ele>
        <time>2017-08-22T09:18:29Z</time>
      </trkpt>
      <trkpt lat="44.22956" lon="0.8826">
        <ele>207.313</ele>
        <time>2017-08-22T09:18:36Z</time>
      </trkpt>
      <trkpt lat="44.22937" lon="0.88267">
        <ele>208.923</ele>
        <time>2017-08-22T09:18:44Z</time>
      </trkpt>
      <trkpt lat="44.2292" lon="0.88275">
        <ele>209.242</ele>
        <time>2017-08-22T09:18:53Z</time>
      </trkpt>
      <trkpt lat="44.22908" lon="0.88281">
        <ele>209.664</ele>
        <time>2017-08-22T09:19:00Z</time>
      </trkpt>
      <trkpt lat="44.22891" lon="0.8829">
        <ele>210.692</ele>
        <time>2017-08-22T09:19:11Z</time>
      </trkpt>
      <trkpt lat="44.22877" lon="0.88294">
        <ele>210.21</ele>
        <time>2017-08-22T09:19:17Z</time>
      </trkpt>
      <trkpt lat="44.22868" lon="0.8828">
        <ele>210.131</ele>
        <time>2017-08-22T09:19:21Z</time>
      </trkpt>
      <trkpt lat="44.22869" lon="0.88269">
        <ele>210.281</ele>
        <time>2017-08-22T09:19:23Z</time>
      </trkpt>
      <trkpt lat="44.22874" lon="0.88222">
        <ele>210.441</ele>
        <time>2017-08-22T09:19:31Z</time>
      </trkpt>
      <trkpt lat="44.22878" lon="0.88175">
        <ele>209.82</ele>
        <time>2017-08-22T09:19:37Z</time>
      </trkpt>
      <trkpt lat="44.22886" lon="0.88084">
        <ele>208.31</ele>
        <time>2017-08-22T09:19:47Z</time>
      </trkpt>
      <trkpt lat="44.22891" lon="0.8798">
        <ele>207.662</ele>
        <time>2017-08-22T09:19:58Z</time>
      </trkpt>
      <trkpt lat="44.22893" lon="0.87908">
        <ele>208.111</ele>
        <time>2017-08-22T09:20:06Z</time>
      </trkpt>
      <trkpt lat="44.22896" lon="0.8784">
        <ele>208.511</ele>
        <time>2017-08-22T09:20:15Z</time>
      </trkpt>
      <trkpt lat="44.22893" lon="0.87775">
        <ele>207.71</ele>
        <time>2017-08-22T09:20:24Z</time>
      </trkpt>
      <trkpt lat="44.22887" lon="0.87699">
        <ele>205.769</ele>
        <time>2017-08-22T09:20:33Z</time>
      </trkpt>
      <trkpt lat="44.22889" lon="0.87623">
        <ele>204.1</ele>
        <time>2017-08-22T09:20:42Z</time>
      </trkpt>
      <trkpt lat="44.22885" lon="0.87564">
        <ele>202.85</ele>
        <time>2017-08-22T09:20:49Z</time>
      </trkpt>
      <trkpt lat="44.22874" lon="0.87497">
        <ele>201.71</ele>
        <time>2017-08-22T09:20:57Z</time>
      </trkpt>
      <trkpt lat="44.22861" lon="0.87424">
        <ele>201.109</ele>
        <time>2017-08-22T09:21:06Z</time>
      </trkpt>
      <trkpt lat="44.2285" lon="0.87358">
        <ele>200.789</ele>
        <time>2017-08-22T09:21:14Z</time>
      </trkpt>
      <trkpt lat="44.2284" lon="0.87285">
        <ele>200.77</ele>
        <time>2017-08-22T09:21:23Z</time>
      </trkpt>
      <trkpt lat="44.22827" lon="0.87206">
        <ele>201.381</ele>
        <time>2017-08-22T09:21:33Z</time>
      </trkpt>
      <trkpt lat="44.22816" lon="0.87137">
        <ele>201.059</ele>
        <time>2017-08-22T09:21:42Z</time>
      </trkpt>
      <trkpt lat="44.22811" lon="0.87062">
        <ele>199.368</ele>
        <time>2017-08-22T09:21:51Z</time>
      </trkpt>
      <trkpt lat="44.22807" lon="0.86977">
        <ele>197.348</ele>
        <time>2017-08-22T09:22:00Z</time>
      </trkpt>
      <trkpt lat="44.22798" lon="0.86919">
        <ele>196.988</ele>
        <time>2017-08-22T09:22:06Z</time>
      </trkpt>
      <trkpt lat="44.22783" lon="0.8685">
        <ele>195.757</ele>
        <time>2017-08-22T09:22:13Z</time>
      </trkpt>
      <trkpt lat="44.22764" lon="0.86796">
        <ele>194.808</ele>
        <time>2017-08-22T09:22:19Z</time>
      </trkpt>
      <trkpt lat="44.22748" lon="0.86764">
        <ele>194.447</ele>
        <time>2017-08-22T09:22:23Z</time>
      </trkpt>
      <trkpt lat="44.22716" lon="0.86727">
        <ele>193.327</ele>
        <time>2017-08-22T09:22:29Z</time>
      </trkpt>
      <trkpt lat="44.22666" lon="0.86694">
        <ele>190.296</ele>
        <time>2017-08-22T09:22:36Z</time>
      </trkpt>
      <trkpt lat="44.22603" lon="0.86657">
        <ele>187.507</ele>
        <time>2017-08-22T09:22:44Z</time>
      </trkpt>
      <trkpt lat="44.22561" lon="0.86634">
        <ele>186.858</ele>
        <time>2017-08-22T09:22:50Z</time>
      </trkpt>
      <trkpt lat="44.22528" lon="0.86607">
        <ele>186.999</ele>
        <time>2017-08-22T09:22:56Z</time>
      </trkpt>
      <trkpt lat="44.225" lon="0.86576">
        <ele>186.415</ele>
        <time>2017-08-22T09:23:03Z</time>
      </trkpt>
      <trkpt lat="44.22492" lon="0.86567">
        <ele>186.165</ele>
        <time>2017-08-22T09:23:05Z</time>
      </trkpt>
      <trkpt lat="44.2246" lon="0.86519">
        <ele>184.575</ele>
        <time>2017-08-22T09:23:13Z</time>
      </trkpt>
      <trkpt lat="44.22441" lon="0.86483">
        <ele>183.395</ele>
        <time>2017-08-22T09:23:18Z</time>
      </trkpt>
      <trkpt lat="44.22435" lon="0.86448">
        <ele>182.204</ele>
        <time>2017-08-22T09:23:22Z</time>
      </trkpt>
      <trkpt lat="44.22439" lon="0.86429">
        <ele>181.534</ele>
        <time>2017-08-22T09:23:24Z</time>
      </trkpt>
      <trkpt lat="44.22452" lon="0.86388">
        <ele>180.194</ele>
        <time>2017-08-22T09:23:28Z</time>
      </trkpt>
      <trkpt lat="44.22458" lon="0.86342">
        <ele>179.235</ele>
        <time>2017-08-22T09:23:32Z</time>
      </trkpt>
      <trkpt lat="44.22456" lon="0.86331">
        <ele>179.346</ele>
        <time>2017-08-22T09:23:33Z</time>
      </trkpt>
      <trkpt lat="44.22448" lon="0.8626">
        <ele>179.125</ele>
        <time>2017-08-22T09:23:40Z</time>
      </trkpt>
      <trkpt lat="44.22432" lon="0.86138">
        <ele>177.877</ele>
        <time>2017-08-22T09:23:52Z</time>
      </trkpt>
      <trkpt lat="44.2242" lon="0.86087">
        <ele>179.349</ele>
        <time>2017-08-22T09:23:58Z</time>
      </trkpt>
      <trkpt lat="44.22415" lon="0.86067">
        <ele>180.417</ele>
        <time>2017-08-22T09:24:02Z</time>
      </trkpt>
      <trkpt lat="44.22409" lon="0.86045">
        <ele>181.886</ele>
        <time>2017-08-22T09:24:08Z</time>
      </trkpt>
      <trkpt lat="44.22398" lon="0.86">
        <ele>184.646</ele>
        <time>2017-08-22T09:24:17Z</time>
      </trkpt>
      <trkpt lat="44.22386" lon="0.85959">
        <ele>186.766</ele>
        <time>2017-08-22T09:24:25Z</time>
      </trkpt>
      <trkpt lat="44.22373" lon="0.85916">
        <ele>186.875</ele>
        <time>2017-08-22T09:24:32Z</time>
      </trkpt>
      <trkpt lat="44.22359" lon="0.85861">
        <ele>186.785</ele>
        <time>2017-08-22T09:24:39Z</time>
      </trkpt>
      <trkpt lat="44.22337" lon="0.85771">
        <ele>186.184</ele>
        <time>2017-08-22T09:24:49Z</time>
      </trkpt>
      <trkpt lat="44.22315" lon="0.85671">
        <ele>184.744</ele>
        <time>2017-08-22T09:24:59Z</time>
      </trkpt>
      <trkpt lat="44.22305" lon="0.85591">
        <ele>183.122</ele>
        <time>2017-08-22T09:25:06Z</time>
      </trkpt>
      <trkpt lat="44.22289" lon="0.85497">
        <ele>182.244</ele>
        <time>2017-08-22T09:25:14Z</time>
      </trkpt>
      <trkpt lat="44.22277" lon="0.85433">
        <ele>184.026</ele>
        <time>2017-08-22T09:25:20Z</time>
      </trkpt>
      <trkpt lat="44.22261" lon="0.8537">
        <ele>185.203</ele>
        <time>2017-08-22T09:25:27Z</time>
      </trkpt>
      <trkpt lat="44.2224" lon="0.85314">
        <ele>182.3</ele>
        <time>2017-08-22T09:25:33Z</time>
      </trkpt>
      <trkpt lat="44.22209" lon="0.85251">
        <ele>178.859</ele>
        <time>2017-08-22T09:25:39Z</time>
      </trkpt>
      <trkpt lat="44.2216" lon="0.85164">
        <ele>175.052</ele>
        <time>2017-08-22T09:25:47Z</time>
      </trkpt>
      <trkpt lat="44.22127" lon="0.85119">
        <ele>174.043</ele>
        <time>2017-08-22T09:25:52Z</time>
      </trkpt>
      <trkpt lat="44.22087" lon="0.85084">
        <ele>173.143</ele>
        <time>2017-08-22T09:25:58Z</time>
      </trkpt>
      <trkpt lat="44.22048" lon="0.85049">
        <ele>172.591</ele>
        <time>2017-08-22T09:26:05Z</time>
      </trkpt>
      <trkpt lat="44.22021" lon="0.85015">
        <ele>172.271</ele>
        <time>2017-08-22T09:26:12Z</time>
      </trkpt>
      <trkpt lat="44.21996" lon="0.84979">
        <ele>171.38</ele>
        <time>2017-08-22T09:26:21Z</time>
      </trkpt>
      <trkpt lat="44.21985" lon="0.84963">
        <ele>170.731</ele>
        <time>2017-08-22T09:26:26Z</time>
      </trkpt>
      <trkpt lat="44.21976" lon="0.84949">
        <ele>170.251</ele>
        <time>2017-08-22T09:26:31Z</time>
      </trkpt>
      <trkpt lat="44.21953" lon="0.8492">
        <ele>169.14</ele>
        <time>2017-08-22T09:26:38Z</time>
      </trkpt>
      <trkpt lat="44.21925" lon="0.84886">
        <ele>167.55</ele>
        <time>2017-08-22T09:26:44Z</time>
      </trkpt>
      <trkpt lat="44.21902" lon="0.84844">
        <ele>167.412</ele>
        <time>2017-08-22T09:26:49Z</time>
      </trkpt>
      <trkpt lat="44.21885" lon="0.84802">
        <ele>168.633</ele>
        <time>2017-08-22T09:26:54Z</time>
      </trkpt>
      <trkpt lat="44.21874" lon="0.84773">
        <ele>169.121</ele>
        <time>2017-08-22T09:26:59Z</time>
      </trkpt>
      <trkpt lat="44.21856" lon="0.84735">
        <ele>168.449</ele>
        <time>2017-08-22T09:27:06Z</time>
      </trkpt>
      <trkpt lat="44.21845" lon="0.84712">
        <ele>168.079</ele>
        <time>2017-08-22T09:27:10Z</time>
      </trkpt>
      <trkpt lat="44.21842" lon="0.84694">
        <ele>167.498</ele>
        <time>2017-08-22T09:27:13Z</time>
      </trkpt>
      <trkpt lat="44.21857" lon="0.84679">
        <ele>166.517</ele>
        <time>2017-08-22T09:27:16Z</time>
      </trkpt>
      <trkpt lat="44.21913" lon="0.84608">
        <ele>163.688</ele>
        <time>2017-08-22T09:27:27Z</time>
      </trkpt>
      <trkpt lat="44.21952" lon="0.84568">
        <ele>161.197</ele>
        <time>2017-08-22T09:27:33Z</time>
      </trkpt>
      <trkpt lat="44.2198" lon="0.84553">
        <ele>160.188</ele>
        <time>2017-08-22T09:27:37Z</time>
      </trkpt>
      <trkpt lat="44.21997" lon="0.84558">
        <ele>159.529</ele>
        <time>2017-08-22T09:27:41Z</time>
      </trkpt>
      <trkpt lat="44.22002" lon="0.84559">
        <ele>159.198</ele>
        <time>2017-08-22T09:27:42Z</time>
      </trkpt>
      <trkpt lat="44.22006" lon="0.8455">
        <ele>158.168</ele>
        <time>2017-08-22T09:27:45Z</time>
      </trkpt>
      <trkpt lat="44.22002" lon="0.84546">
        <ele>158.168</ele>
        <time>2017-08-22T09:27:48Z</time>
      </trkpt>
      <trkpt lat="44.22001" lon="0.84549">
        <ele>159.458</ele>
        <time>2017-08-22T09:27:53Z</time>
      </trkpt>
    </trkseg>
  </trk>
</gpx>